<?xml version="1.0" encoding="UTF-8" standalone="no" ?>
<gpx xmlns="http://www.topografix.com/GPX/1/1" xmlns:xsi="http://www.w3.org/2001/XMLSchema-instance" xsi:schemaLocation="http://www.topografix.com/GPX/1/1 http://www.topografix.com/GPX/1/1/gpx.xsd" version="1.1" creator="VisuGPX - https://www.visugpx.com">
  <metadata>
    <name>randonnée des éoliennes</name>
    <desc><![CDATA[sa fait deux ans que je ne l'avais pas fait]]></desc>
  </metadata>
  <trk>
    <name><![CDATA[Tracé actuel: 30 AOU 2020 12:52]]></name>
    <trkseg>
      <trkpt lat="49.63447" lon="4.98048">
        <ele>207.78</ele>
        <time>2020-08-30T10:52:07Z</time>
      </trkpt>
      <trkpt lat="49.63445" lon="4.98045">
        <ele>206.82</ele>
        <time>2020-08-30T10:52:33Z</time>
      </trkpt>
      <trkpt lat="49.63442" lon="4.98043">
        <ele>207.78</ele>
        <time>2020-08-30T10:52:35Z</time>
      </trkpt>
      <trkpt lat="49.6342" lon="4.98026">
        <ele>218.36</ele>
        <time>2020-08-30T10:52:55Z</time>
      </trkpt>
      <trkpt lat="49.6342" lon="4.98035">
        <ele>221.24</ele>
        <time>2020-08-30T10:53:14Z</time>
      </trkpt>
      <trkpt lat="49.6344" lon="4.98046">
        <ele>218.84</ele>
        <time>2020-08-30T10:53:40Z</time>
      </trkpt>
      <trkpt lat="49.63439" lon="4.98068">
        <ele>213.07</ele>
        <time>2020-08-30T10:54:00Z</time>
      </trkpt>
      <trkpt lat="49.63449" lon="4.98068">
        <ele>197.21</ele>
        <time>2020-08-30T10:54:14Z</time>
      </trkpt>
      <trkpt lat="49.63463" lon="4.9808">
        <ele>190.48</ele>
        <time>2020-08-30T10:54:32Z</time>
      </trkpt>
      <trkpt lat="49.63466" lon="4.98085">
        <ele>190.48</ele>
        <time>2020-08-30T10:54:36Z</time>
      </trkpt>
      <trkpt lat="49.63475" lon="4.98102">
        <ele>189.04</ele>
        <time>2020-08-30T10:54:51Z</time>
      </trkpt>
      <trkpt lat="49.63483" lon="4.98112">
        <ele>185.67</ele>
        <time>2020-08-30T10:55:04Z</time>
      </trkpt>
      <trkpt lat="49.63493" lon="4.98129">
        <ele>180.87</ele>
        <time>2020-08-30T10:55:21Z</time>
      </trkpt>
      <trkpt lat="49.63493" lon="4.98142">
        <ele>179.9</ele>
        <time>2020-08-30T10:55:31Z</time>
      </trkpt>
      <trkpt lat="49.63489" lon="4.98146">
        <ele>180.38</ele>
        <time>2020-08-30T10:55:36Z</time>
      </trkpt>
      <trkpt lat="49.63478" lon="4.98172">
        <ele>184.71</ele>
        <time>2020-08-30T10:55:55Z</time>
      </trkpt>
      <trkpt lat="49.63472" lon="4.98194">
        <ele>187.11</ele>
        <time>2020-08-30T10:56:11Z</time>
      </trkpt>
      <trkpt lat="49.63464" lon="4.98216">
        <ele>188.56</ele>
        <time>2020-08-30T10:56:29Z</time>
      </trkpt>
      <trkpt lat="49.63455" lon="4.98234">
        <ele>191.44</ele>
        <time>2020-08-30T10:56:44Z</time>
      </trkpt>
      <trkpt lat="49.63446" lon="4.98251">
        <ele>192.4</ele>
        <time>2020-08-30T10:56:59Z</time>
      </trkpt>
      <trkpt lat="49.63436" lon="4.98263">
        <ele>192.88</ele>
        <time>2020-08-30T10:57:14Z</time>
      </trkpt>
      <trkpt lat="49.63426" lon="4.98276">
        <ele>193.84</ele>
        <time>2020-08-30T10:57:27Z</time>
      </trkpt>
      <trkpt lat="49.63415" lon="4.98291">
        <ele>194.8</ele>
        <time>2020-08-30T10:57:42Z</time>
      </trkpt>
      <trkpt lat="49.63402" lon="4.98305">
        <ele>195.77</ele>
        <time>2020-08-30T10:57:58Z</time>
      </trkpt>
      <trkpt lat="49.63389" lon="4.98317">
        <ele>196.73</ele>
        <time>2020-08-30T10:58:13Z</time>
      </trkpt>
      <trkpt lat="49.63375" lon="4.9833">
        <ele>198.65</ele>
        <time>2020-08-30T10:58:30Z</time>
      </trkpt>
      <trkpt lat="49.6336" lon="4.98341">
        <ele>200.57</ele>
        <time>2020-08-30T10:58:45Z</time>
      </trkpt>
      <trkpt lat="49.63344" lon="4.9835">
        <ele>203.94</ele>
        <time>2020-08-30T10:59:03Z</time>
      </trkpt>
      <trkpt lat="49.63323" lon="4.98351">
        <ele>206.82</ele>
        <time>2020-08-30T10:59:24Z</time>
      </trkpt>
      <trkpt lat="49.63306" lon="4.98349">
        <ele>205.86</ele>
        <time>2020-08-30T10:59:42Z</time>
      </trkpt>
      <trkpt lat="49.63285" lon="4.98351">
        <ele>201.53</ele>
        <time>2020-08-30T11:00:03Z</time>
      </trkpt>
      <trkpt lat="49.63275" lon="4.98349">
        <ele>200.09</ele>
        <time>2020-08-30T11:00:13Z</time>
      </trkpt>
      <trkpt lat="49.63257" lon="4.98349">
        <ele>198.65</ele>
        <time>2020-08-30T11:00:31Z</time>
      </trkpt>
      <trkpt lat="49.6324" lon="4.98348">
        <ele>194.32</ele>
        <time>2020-08-30T11:00:49Z</time>
      </trkpt>
      <trkpt lat="49.63221" lon="4.98344">
        <ele>193.36</ele>
        <time>2020-08-30T11:01:07Z</time>
      </trkpt>
      <trkpt lat="49.63202" lon="4.98344">
        <ele>194.8</ele>
        <time>2020-08-30T11:01:24Z</time>
      </trkpt>
      <trkpt lat="49.63185" lon="4.98343">
        <ele>195.77</ele>
        <time>2020-08-30T11:01:40Z</time>
      </trkpt>
      <trkpt lat="49.63175" lon="4.98342">
        <ele>193.84</ele>
        <time>2020-08-30T11:01:52Z</time>
      </trkpt>
      <trkpt lat="49.63161" lon="4.98337">
        <ele>192.4</ele>
        <time>2020-08-30T11:02:08Z</time>
      </trkpt>
      <trkpt lat="49.63144" lon="4.98336">
        <ele>191.92</ele>
        <time>2020-08-30T11:02:24Z</time>
      </trkpt>
      <trkpt lat="49.63122" lon="4.98336">
        <ele>196.73</ele>
        <time>2020-08-30T11:02:44Z</time>
      </trkpt>
      <trkpt lat="49.63101" lon="4.98335">
        <ele>198.65</ele>
        <time>2020-08-30T11:03:03Z</time>
      </trkpt>
      <trkpt lat="49.6308" lon="4.98332">
        <ele>202.01</ele>
        <time>2020-08-30T11:03:23Z</time>
      </trkpt>
      <trkpt lat="49.63055" lon="4.98332">
        <ele>204.9</ele>
        <time>2020-08-30T11:03:45Z</time>
      </trkpt>
      <trkpt lat="49.63038" lon="4.9833">
        <ele>202.49</ele>
        <time>2020-08-30T11:04:03Z</time>
      </trkpt>
      <trkpt lat="49.63022" lon="4.98333">
        <ele>204.42</ele>
        <time>2020-08-30T11:04:20Z</time>
      </trkpt>
      <trkpt lat="49.63003" lon="4.98333">
        <ele>200.57</ele>
        <time>2020-08-30T11:04:40Z</time>
      </trkpt>
      <trkpt lat="49.62979" lon="4.98327">
        <ele>202.01</ele>
        <time>2020-08-30T11:05:02Z</time>
      </trkpt>
      <trkpt lat="49.62968" lon="4.98329">
        <ele>196.25</ele>
        <time>2020-08-30T11:05:19Z</time>
      </trkpt>
      <trkpt lat="49.6295" lon="4.98335">
        <ele>202.49</ele>
        <time>2020-08-30T11:05:34Z</time>
      </trkpt>
      <trkpt lat="49.62938" lon="4.98339">
        <ele>204.42</ele>
        <time>2020-08-30T11:05:45Z</time>
      </trkpt>
      <trkpt lat="49.62918" lon="4.9835">
        <ele>203.46</ele>
        <time>2020-08-30T11:06:03Z</time>
      </trkpt>
      <trkpt lat="49.62899" lon="4.98349">
        <ele>208.26</ele>
        <time>2020-08-30T11:06:23Z</time>
      </trkpt>
      <trkpt lat="49.62879" lon="4.98345">
        <ele>215.95</ele>
        <time>2020-08-30T11:06:40Z</time>
      </trkpt>
      <trkpt lat="49.62856" lon="4.98347">
        <ele>220.76</ele>
        <time>2020-08-30T11:07:01Z</time>
      </trkpt>
      <trkpt lat="49.62834" lon="4.98358">
        <ele>228.45</ele>
        <time>2020-08-30T11:07:19Z</time>
      </trkpt>
      <trkpt lat="49.62825" lon="4.98364">
        <ele>233.26</ele>
        <time>2020-08-30T11:07:33Z</time>
      </trkpt>
      <trkpt lat="49.6281" lon="4.98376">
        <ele>237.1</ele>
        <time>2020-08-30T11:07:50Z</time>
      </trkpt>
      <trkpt lat="49.62797" lon="4.98387">
        <ele>240.95</ele>
        <time>2020-08-30T11:08:06Z</time>
      </trkpt>
      <trkpt lat="49.62783" lon="4.98397">
        <ele>242.87</ele>
        <time>2020-08-30T11:08:21Z</time>
      </trkpt>
      <trkpt lat="49.62767" lon="4.98412">
        <ele>244.31</ele>
        <time>2020-08-30T11:08:38Z</time>
      </trkpt>
      <trkpt lat="49.6276" lon="4.98417">
        <ele>245.27</ele>
        <time>2020-08-30T11:08:45Z</time>
      </trkpt>
      <trkpt lat="49.62742" lon="4.98431">
        <ele>246.72</ele>
        <time>2020-08-30T11:09:03Z</time>
      </trkpt>
      <trkpt lat="49.62729" lon="4.98442">
        <ele>249.12</ele>
        <time>2020-08-30T11:09:17Z</time>
      </trkpt>
      <trkpt lat="49.62715" lon="4.98455">
        <ele>251.52</ele>
        <time>2020-08-30T11:09:33Z</time>
      </trkpt>
      <trkpt lat="49.62699" lon="4.98469">
        <ele>252</ele>
        <time>2020-08-30T11:09:50Z</time>
      </trkpt>
      <trkpt lat="49.62684" lon="4.98482">
        <ele>254.41</ele>
        <time>2020-08-30T11:10:07Z</time>
      </trkpt>
      <trkpt lat="49.6267" lon="4.98493">
        <ele>257.29</ele>
        <time>2020-08-30T11:10:23Z</time>
      </trkpt>
      <trkpt lat="49.62653" lon="4.98506">
        <ele>256.81</ele>
        <time>2020-08-30T11:10:41Z</time>
      </trkpt>
      <trkpt lat="49.62637" lon="4.98519">
        <ele>258.25</ele>
        <time>2020-08-30T11:10:58Z</time>
      </trkpt>
      <trkpt lat="49.62621" lon="4.98534">
        <ele>256.81</ele>
        <time>2020-08-30T11:11:15Z</time>
      </trkpt>
      <trkpt lat="49.62616" lon="4.98538">
        <ele>255.85</ele>
        <time>2020-08-30T11:11:20Z</time>
      </trkpt>
      <trkpt lat="49.626" lon="4.9855">
        <ele>254.89</ele>
        <time>2020-08-30T11:11:38Z</time>
      </trkpt>
      <trkpt lat="49.62583" lon="4.98564">
        <ele>253.44</ele>
        <time>2020-08-30T11:11:57Z</time>
      </trkpt>
      <trkpt lat="49.62568" lon="4.98578">
        <ele>254.89</ele>
        <time>2020-08-30T11:12:14Z</time>
      </trkpt>
      <trkpt lat="49.62559" lon="4.98582">
        <ele>254.89</ele>
        <time>2020-08-30T11:12:23Z</time>
      </trkpt>
      <trkpt lat="49.62552" lon="4.98569">
        <ele>252.48</ele>
        <time>2020-08-30T11:12:38Z</time>
      </trkpt>
      <trkpt lat="49.62544" lon="4.98556">
        <ele>249.6</ele>
        <time>2020-08-30T11:12:53Z</time>
      </trkpt>
      <trkpt lat="49.62543" lon="4.98557">
        <ele>250.08</ele>
        <time>2020-08-30T11:12:54Z</time>
      </trkpt>
      <trkpt lat="49.62539" lon="4.98558">
        <ele>250.56</ele>
        <time>2020-08-30T11:12:58Z</time>
      </trkpt>
      <trkpt lat="49.62518" lon="4.98562">
        <ele>251.04</ele>
        <time>2020-08-30T11:13:17Z</time>
      </trkpt>
      <trkpt lat="49.62501" lon="4.98556">
        <ele>249.6</ele>
        <time>2020-08-30T11:13:33Z</time>
      </trkpt>
      <trkpt lat="49.62482" lon="4.98541">
        <ele>249.6</ele>
        <time>2020-08-30T11:13:52Z</time>
      </trkpt>
      <trkpt lat="49.62477" lon="4.98537">
        <ele>249.6</ele>
        <time>2020-08-30T11:13:57Z</time>
      </trkpt>
      <trkpt lat="49.62461" lon="4.98526">
        <ele>250.56</ele>
        <time>2020-08-30T11:14:13Z</time>
      </trkpt>
      <trkpt lat="49.62457" lon="4.98522">
        <ele>250.56</ele>
        <time>2020-08-30T11:14:17Z</time>
      </trkpt>
      <trkpt lat="49.62454" lon="4.98519">
        <ele>251.04</ele>
        <time>2020-08-30T11:14:21Z</time>
      </trkpt>
      <trkpt lat="49.62435" lon="4.98506">
        <ele>251.52</ele>
        <time>2020-08-30T11:14:41Z</time>
      </trkpt>
      <trkpt lat="49.62418" lon="4.98492">
        <ele>251.52</ele>
        <time>2020-08-30T11:14:58Z</time>
      </trkpt>
      <trkpt lat="49.624" lon="4.9848">
        <ele>250.56</ele>
        <time>2020-08-30T11:15:17Z</time>
      </trkpt>
      <trkpt lat="49.62377" lon="4.98467">
        <ele>252.48</ele>
        <time>2020-08-30T11:15:39Z</time>
      </trkpt>
      <trkpt lat="49.62357" lon="4.98456">
        <ele>255.85</ele>
        <time>2020-08-30T11:15:57Z</time>
      </trkpt>
      <trkpt lat="49.62337" lon="4.9844">
        <ele>257.29</ele>
        <time>2020-08-30T11:16:18Z</time>
      </trkpt>
      <trkpt lat="49.62319" lon="4.98424">
        <ele>261.14</ele>
        <time>2020-08-30T11:16:36Z</time>
      </trkpt>
      <trkpt lat="49.62304" lon="4.98404">
        <ele>259.21</ele>
        <time>2020-08-30T11:16:54Z</time>
      </trkpt>
      <trkpt lat="49.62294" lon="4.98386">
        <ele>257.29</ele>
        <time>2020-08-30T11:17:10Z</time>
      </trkpt>
      <trkpt lat="49.6229" lon="4.98376">
        <ele>255.37</ele>
        <time>2020-08-30T11:17:18Z</time>
      </trkpt>
      <trkpt lat="49.62279" lon="4.98356">
        <ele>255.37</ele>
        <time>2020-08-30T11:17:34Z</time>
      </trkpt>
      <trkpt lat="49.62263" lon="4.98335">
        <ele>262.1</ele>
        <time>2020-08-30T11:17:51Z</time>
      </trkpt>
      <trkpt lat="49.62245" lon="4.98321">
        <ele>262.1</ele>
        <time>2020-08-30T11:18:11Z</time>
      </trkpt>
      <trkpt lat="49.6223" lon="4.98311">
        <ele>258.25</ele>
        <time>2020-08-30T11:18:28Z</time>
      </trkpt>
      <trkpt lat="49.62213" lon="4.98301">
        <ele>254.41</ele>
        <time>2020-08-30T11:18:46Z</time>
      </trkpt>
      <trkpt lat="49.62201" lon="4.98293">
        <ele>250.08</ele>
        <time>2020-08-30T11:19:01Z</time>
      </trkpt>
      <trkpt lat="49.62187" lon="4.98283">
        <ele>248.16</ele>
        <time>2020-08-30T11:19:17Z</time>
      </trkpt>
      <trkpt lat="49.62177" lon="4.98279">
        <ele>249.6</ele>
        <time>2020-08-30T11:19:27Z</time>
      </trkpt>
      <trkpt lat="49.6215" lon="4.98265">
        <ele>253.44</ele>
        <time>2020-08-30T11:19:48Z</time>
      </trkpt>
      <trkpt lat="49.62135" lon="4.98254">
        <ele>255.37</ele>
        <time>2020-08-30T11:20:02Z</time>
      </trkpt>
      <trkpt lat="49.62111" lon="4.98241">
        <ele>264.5</ele>
        <time>2020-08-30T11:20:22Z</time>
      </trkpt>
      <trkpt lat="49.62092" lon="4.98233">
        <ele>267.86</ele>
        <time>2020-08-30T11:20:39Z</time>
      </trkpt>
      <trkpt lat="49.62075" lon="4.98224">
        <ele>272.67</ele>
        <time>2020-08-30T11:20:56Z</time>
      </trkpt>
      <trkpt lat="49.62059" lon="4.98218">
        <ele>274.11</ele>
        <time>2020-08-30T11:21:11Z</time>
      </trkpt>
      <trkpt lat="49.62056" lon="4.98217">
        <ele>274.11</ele>
        <time>2020-08-30T11:21:14Z</time>
      </trkpt>
      <trkpt lat="49.62048" lon="4.98213">
        <ele>274.11</ele>
        <time>2020-08-30T11:21:22Z</time>
      </trkpt>
      <trkpt lat="49.62029" lon="4.98205">
        <ele>274.59</ele>
        <time>2020-08-30T11:21:39Z</time>
      </trkpt>
      <trkpt lat="49.62013" lon="4.98196">
        <ele>275.07</ele>
        <time>2020-08-30T11:21:56Z</time>
      </trkpt>
      <trkpt lat="49.61997" lon="4.9819">
        <ele>274.11</ele>
        <time>2020-08-30T11:22:11Z</time>
      </trkpt>
      <trkpt lat="49.6198" lon="4.98182">
        <ele>275.07</ele>
        <time>2020-08-30T11:22:27Z</time>
      </trkpt>
      <trkpt lat="49.61966" lon="4.98175">
        <ele>274.11</ele>
        <time>2020-08-30T11:22:42Z</time>
      </trkpt>
      <trkpt lat="49.61949" lon="4.98167">
        <ele>276.52</ele>
        <time>2020-08-30T11:22:58Z</time>
      </trkpt>
      <trkpt lat="49.61936" lon="4.9816">
        <ele>279.88</ele>
        <time>2020-08-30T11:23:15Z</time>
      </trkpt>
      <trkpt lat="49.61917" lon="4.98152">
        <ele>277.48</ele>
        <time>2020-08-30T11:23:32Z</time>
      </trkpt>
      <trkpt lat="49.61903" lon="4.98146">
        <ele>273.15</ele>
        <time>2020-08-30T11:23:50Z</time>
      </trkpt>
      <trkpt lat="49.61885" lon="4.98146">
        <ele>271.71</ele>
        <time>2020-08-30T11:24:07Z</time>
      </trkpt>
      <trkpt lat="49.61859" lon="4.98162">
        <ele>282.77</ele>
        <time>2020-08-30T11:24:27Z</time>
      </trkpt>
      <trkpt lat="49.61842" lon="4.98176">
        <ele>287.57</ele>
        <time>2020-08-30T11:24:44Z</time>
      </trkpt>
      <trkpt lat="49.61836" lon="4.98174">
        <ele>286.13</ele>
        <time>2020-08-30T11:24:51Z</time>
      </trkpt>
      <trkpt lat="49.6183" lon="4.98166">
        <ele>287.57</ele>
        <time>2020-08-30T11:25:01Z</time>
      </trkpt>
      <trkpt lat="49.61843" lon="4.98144">
        <ele>289.01</ele>
        <time>2020-08-30T11:25:19Z</time>
      </trkpt>
      <trkpt lat="49.61853" lon="4.98126">
        <ele>287.57</ele>
        <time>2020-08-30T11:25:35Z</time>
      </trkpt>
      <trkpt lat="49.61859" lon="4.98105">
        <ele>284.69</ele>
        <time>2020-08-30T11:25:50Z</time>
      </trkpt>
      <trkpt lat="49.6187" lon="4.98083">
        <ele>282.77</ele>
        <time>2020-08-30T11:26:08Z</time>
      </trkpt>
      <trkpt lat="49.61877" lon="4.98066">
        <ele>282.77</ele>
        <time>2020-08-30T11:26:20Z</time>
      </trkpt>
      <trkpt lat="49.61888" lon="4.98042">
        <ele>282.28</ele>
        <time>2020-08-30T11:26:37Z</time>
      </trkpt>
      <trkpt lat="49.61896" lon="4.98014">
        <ele>284.21</ele>
        <time>2020-08-30T11:26:53Z</time>
      </trkpt>
      <trkpt lat="49.61911" lon="4.97988">
        <ele>285.65</ele>
        <time>2020-08-30T11:27:13Z</time>
      </trkpt>
      <trkpt lat="49.61924" lon="4.97967">
        <ele>285.17</ele>
        <time>2020-08-30T11:27:31Z</time>
      </trkpt>
      <trkpt lat="49.61942" lon="4.97944">
        <ele>284.69</ele>
        <time>2020-08-30T11:27:51Z</time>
      </trkpt>
      <trkpt lat="49.61957" lon="4.97922">
        <ele>285.17</ele>
        <time>2020-08-30T11:28:10Z</time>
      </trkpt>
      <trkpt lat="49.61973" lon="4.97896">
        <ele>285.17</ele>
        <time>2020-08-30T11:28:31Z</time>
      </trkpt>
      <trkpt lat="49.61985" lon="4.97872">
        <ele>283.25</ele>
        <time>2020-08-30T11:28:49Z</time>
      </trkpt>
      <trkpt lat="49.61995" lon="4.97839">
        <ele>283.25</ele>
        <time>2020-08-30T11:29:10Z</time>
      </trkpt>
      <trkpt lat="49.62001" lon="4.97807">
        <ele>281.8</ele>
        <time>2020-08-30T11:29:31Z</time>
      </trkpt>
      <trkpt lat="49.62009" lon="4.97771">
        <ele>281.8</ele>
        <time>2020-08-30T11:29:53Z</time>
      </trkpt>
      <trkpt lat="49.62015" lon="4.97741">
        <ele>282.77</ele>
        <time>2020-08-30T11:30:12Z</time>
      </trkpt>
      <trkpt lat="49.6202" lon="4.97709">
        <ele>282.28</ele>
        <time>2020-08-30T11:30:31Z</time>
      </trkpt>
      <trkpt lat="49.62022" lon="4.9769">
        <ele>281.8</ele>
        <time>2020-08-30T11:30:42Z</time>
      </trkpt>
      <trkpt lat="49.62028" lon="4.97654">
        <ele>280.84</ele>
        <time>2020-08-30T11:31:03Z</time>
      </trkpt>
      <trkpt lat="49.62031" lon="4.97622">
        <ele>280.84</ele>
        <time>2020-08-30T11:31:23Z</time>
      </trkpt>
      <trkpt lat="49.62031" lon="4.97598">
        <ele>279.88</ele>
        <time>2020-08-30T11:31:38Z</time>
      </trkpt>
      <trkpt lat="49.62033" lon="4.97563">
        <ele>279.4</ele>
        <time>2020-08-30T11:31:59Z</time>
      </trkpt>
      <trkpt lat="49.62035" lon="4.97534">
        <ele>279.88</ele>
        <time>2020-08-30T11:32:18Z</time>
      </trkpt>
      <trkpt lat="49.62034" lon="4.9751">
        <ele>279.88</ele>
        <time>2020-08-30T11:32:34Z</time>
      </trkpt>
      <trkpt lat="49.62012" lon="4.97504">
        <ele>276.04</ele>
        <time>2020-08-30T11:32:54Z</time>
      </trkpt>
      <trkpt lat="49.61991" lon="4.97503">
        <ele>275.07</ele>
        <time>2020-08-30T11:33:14Z</time>
      </trkpt>
      <trkpt lat="49.6197" lon="4.97503">
        <ele>273.63</ele>
        <time>2020-08-30T11:33:34Z</time>
      </trkpt>
      <trkpt lat="49.61946" lon="4.97504">
        <ele>272.67</ele>
        <time>2020-08-30T11:33:56Z</time>
      </trkpt>
      <trkpt lat="49.61928" lon="4.97504">
        <ele>270.75</ele>
        <time>2020-08-30T11:34:13Z</time>
      </trkpt>
      <trkpt lat="49.61904" lon="4.97504">
        <ele>270.75</ele>
        <time>2020-08-30T11:34:36Z</time>
      </trkpt>
      <trkpt lat="49.61902" lon="4.97504">
        <ele>270.27</ele>
        <time>2020-08-30T11:34:38Z</time>
      </trkpt>
      <trkpt lat="49.61881" lon="4.97494">
        <ele>268.35</ele>
        <time>2020-08-30T11:35:00Z</time>
      </trkpt>
      <trkpt lat="49.6187" lon="4.97477">
        <ele>267.86</ele>
        <time>2020-08-30T11:35:16Z</time>
      </trkpt>
      <trkpt lat="49.61853" lon="4.97453">
        <ele>265.46</ele>
        <time>2020-08-30T11:35:39Z</time>
      </trkpt>
      <trkpt lat="49.61835" lon="4.9743">
        <ele>264.02</ele>
        <time>2020-08-30T11:36:01Z</time>
      </trkpt>
      <trkpt lat="49.6182" lon="4.97409">
        <ele>263.06</ele>
        <time>2020-08-30T11:36:22Z</time>
      </trkpt>
      <trkpt lat="49.61817" lon="4.97401">
        <ele>262.58</ele>
        <time>2020-08-30T11:36:28Z</time>
      </trkpt>
      <trkpt lat="49.61808" lon="4.97369">
        <ele>260.17</ele>
        <time>2020-08-30T11:36:50Z</time>
      </trkpt>
      <trkpt lat="49.618" lon="4.97337">
        <ele>257.77</ele>
        <time>2020-08-30T11:37:10Z</time>
      </trkpt>
      <trkpt lat="49.61793" lon="4.97311">
        <ele>256.81</ele>
        <time>2020-08-30T11:37:28Z</time>
      </trkpt>
      <trkpt lat="49.61786" lon="4.97285">
        <ele>255.37</ele>
        <time>2020-08-30T11:37:47Z</time>
      </trkpt>
      <trkpt lat="49.61779" lon="4.9726">
        <ele>253.44</ele>
        <time>2020-08-30T11:38:07Z</time>
      </trkpt>
      <trkpt lat="49.61772" lon="4.9723">
        <ele>250.08</ele>
        <time>2020-08-30T11:38:28Z</time>
      </trkpt>
      <trkpt lat="49.61763" lon="4.972">
        <ele>249.6</ele>
        <time>2020-08-30T11:38:46Z</time>
      </trkpt>
      <trkpt lat="49.61757" lon="4.97176">
        <ele>249.6</ele>
        <time>2020-08-30T11:39:01Z</time>
      </trkpt>
      <trkpt lat="49.61748" lon="4.97156">
        <ele>249.6</ele>
        <time>2020-08-30T11:39:18Z</time>
      </trkpt>
      <trkpt lat="49.61743" lon="4.97159">
        <ele>249.12</ele>
        <time>2020-08-30T11:39:23Z</time>
      </trkpt>
      <trkpt lat="49.61726" lon="4.97179">
        <ele>249.12</ele>
        <time>2020-08-30T11:39:43Z</time>
      </trkpt>
      <trkpt lat="49.6171" lon="4.97199">
        <ele>248.64</ele>
        <time>2020-08-30T11:40:01Z</time>
      </trkpt>
      <trkpt lat="49.61695" lon="4.97225">
        <ele>247.2</ele>
        <time>2020-08-30T11:40:21Z</time>
      </trkpt>
      <trkpt lat="49.6168" lon="4.97253">
        <ele>246.23</ele>
        <time>2020-08-30T11:40:41Z</time>
      </trkpt>
      <trkpt lat="49.61665" lon="4.97276">
        <ele>247.68</ele>
        <time>2020-08-30T11:40:59Z</time>
      </trkpt>
      <trkpt lat="49.61645" lon="4.97299">
        <ele>251.04</ele>
        <time>2020-08-30T11:41:19Z</time>
      </trkpt>
      <trkpt lat="49.61627" lon="4.97323">
        <ele>252.48</ele>
        <time>2020-08-30T11:41:39Z</time>
      </trkpt>
      <trkpt lat="49.6161" lon="4.97347">
        <ele>252.48</ele>
        <time>2020-08-30T11:41:59Z</time>
      </trkpt>
      <trkpt lat="49.61596" lon="4.97368">
        <ele>250.56</ele>
        <time>2020-08-30T11:42:17Z</time>
      </trkpt>
      <trkpt lat="49.6158" lon="4.97391">
        <ele>249.12</ele>
        <time>2020-08-30T11:42:36Z</time>
      </trkpt>
      <trkpt lat="49.61563" lon="4.97417">
        <ele>250.08</ele>
        <time>2020-08-30T11:42:57Z</time>
      </trkpt>
      <trkpt lat="49.61554" lon="4.97434">
        <ele>252.48</ele>
        <time>2020-08-30T11:43:10Z</time>
      </trkpt>
      <trkpt lat="49.6154" lon="4.97459">
        <ele>253.93</ele>
        <time>2020-08-30T11:43:28Z</time>
      </trkpt>
      <trkpt lat="49.61534" lon="4.97469">
        <ele>254.89</ele>
        <time>2020-08-30T11:43:36Z</time>
      </trkpt>
      <trkpt lat="49.61519" lon="4.9749">
        <ele>257.77</ele>
        <time>2020-08-30T11:43:55Z</time>
      </trkpt>
      <trkpt lat="49.61503" lon="4.97513">
        <ele>260.65</ele>
        <time>2020-08-30T11:44:15Z</time>
      </trkpt>
      <trkpt lat="49.61488" lon="4.9753">
        <ele>261.62</ele>
        <time>2020-08-30T11:44:32Z</time>
      </trkpt>
      <trkpt lat="49.61475" lon="4.97548">
        <ele>262.1</ele>
        <time>2020-08-30T11:44:49Z</time>
      </trkpt>
      <trkpt lat="49.61473" lon="4.9755">
        <ele>262.1</ele>
        <time>2020-08-30T11:44:51Z</time>
      </trkpt>
      <trkpt lat="49.61467" lon="4.97557">
        <ele>263.06</ele>
        <time>2020-08-30T11:44:58Z</time>
      </trkpt>
      <trkpt lat="49.61451" lon="4.97578">
        <ele>265.46</ele>
        <time>2020-08-30T11:45:17Z</time>
      </trkpt>
      <trkpt lat="49.61436" lon="4.97598">
        <ele>266.9</ele>
        <time>2020-08-30T11:45:35Z</time>
      </trkpt>
      <trkpt lat="49.6142" lon="4.97619">
        <ele>267.86</ele>
        <time>2020-08-30T11:45:54Z</time>
      </trkpt>
      <trkpt lat="49.61401" lon="4.97642">
        <ele>269.31</ele>
        <time>2020-08-30T11:46:15Z</time>
      </trkpt>
      <trkpt lat="49.614" lon="4.97644">
        <ele>269.79</ele>
        <time>2020-08-30T11:46:17Z</time>
      </trkpt>
      <trkpt lat="49.61398" lon="4.97646">
        <ele>270.27</ele>
        <time>2020-08-30T11:46:19Z</time>
      </trkpt>
      <trkpt lat="49.61382" lon="4.97663">
        <ele>273.15</ele>
        <time>2020-08-30T11:46:38Z</time>
      </trkpt>
      <trkpt lat="49.61366" lon="4.97676">
        <ele>277</ele>
        <time>2020-08-30T11:46:56Z</time>
      </trkpt>
      <trkpt lat="49.61352" lon="4.9769">
        <ele>277</ele>
        <time>2020-08-30T11:47:14Z</time>
      </trkpt>
      <trkpt lat="49.61336" lon="4.97705">
        <ele>277.96</ele>
        <time>2020-08-30T11:47:31Z</time>
      </trkpt>
      <trkpt lat="49.61319" lon="4.97722">
        <ele>277.48</ele>
        <time>2020-08-30T11:47:48Z</time>
      </trkpt>
      <trkpt lat="49.61302" lon="4.97737">
        <ele>277</ele>
        <time>2020-08-30T11:48:07Z</time>
      </trkpt>
      <trkpt lat="49.61284" lon="4.97752">
        <ele>277.48</ele>
        <time>2020-08-30T11:48:25Z</time>
      </trkpt>
      <trkpt lat="49.61268" lon="4.97764">
        <ele>277.48</ele>
        <time>2020-08-30T11:48:42Z</time>
      </trkpt>
      <trkpt lat="49.61249" lon="4.97772">
        <ele>280.84</ele>
        <time>2020-08-30T11:49:00Z</time>
      </trkpt>
      <trkpt lat="49.61232" lon="4.97779">
        <ele>284.69</ele>
        <time>2020-08-30T11:49:15Z</time>
      </trkpt>
      <trkpt lat="49.61217" lon="4.9779">
        <ele>287.57</ele>
        <time>2020-08-30T11:49:30Z</time>
      </trkpt>
      <trkpt lat="49.61205" lon="4.97802">
        <ele>285.17</ele>
        <time>2020-08-30T11:49:46Z</time>
      </trkpt>
      <trkpt lat="49.61191" lon="4.97813">
        <ele>283.25</ele>
        <time>2020-08-30T11:50:02Z</time>
      </trkpt>
      <trkpt lat="49.61173" lon="4.97835">
        <ele>283.73</ele>
        <time>2020-08-30T11:50:21Z</time>
      </trkpt>
      <trkpt lat="49.61155" lon="4.97861">
        <ele>286.61</ele>
        <time>2020-08-30T11:50:42Z</time>
      </trkpt>
      <trkpt lat="49.61144" lon="4.97876">
        <ele>283.73</ele>
        <time>2020-08-30T11:50:59Z</time>
      </trkpt>
      <trkpt lat="49.61128" lon="4.97895">
        <ele>284.69</ele>
        <time>2020-08-30T11:51:18Z</time>
      </trkpt>
      <trkpt lat="49.61116" lon="4.97912">
        <ele>280.36</ele>
        <time>2020-08-30T11:51:36Z</time>
      </trkpt>
      <trkpt lat="49.61101" lon="4.97931">
        <ele>277.96</ele>
        <time>2020-08-30T11:51:55Z</time>
      </trkpt>
      <trkpt lat="49.61089" lon="4.9795">
        <ele>278.44</ele>
        <time>2020-08-30T11:52:11Z</time>
      </trkpt>
      <trkpt lat="49.61076" lon="4.97967">
        <ele>277.48</ele>
        <time>2020-08-30T11:52:26Z</time>
      </trkpt>
      <trkpt lat="49.61064" lon="4.97986">
        <ele>279.4</ele>
        <time>2020-08-30T11:52:41Z</time>
      </trkpt>
      <trkpt lat="49.61057" lon="4.98002">
        <ele>285.17</ele>
        <time>2020-08-30T11:52:58Z</time>
      </trkpt>
      <trkpt lat="49.61044" lon="4.98022">
        <ele>284.69</ele>
        <time>2020-08-30T11:53:15Z</time>
      </trkpt>
      <trkpt lat="49.61028" lon="4.98047">
        <ele>286.13</ele>
        <time>2020-08-30T11:53:33Z</time>
      </trkpt>
      <trkpt lat="49.61014" lon="4.98068">
        <ele>285.17</ele>
        <time>2020-08-30T11:53:51Z</time>
      </trkpt>
      <trkpt lat="49.60999" lon="4.98092">
        <ele>283.25</ele>
        <time>2020-08-30T11:54:10Z</time>
      </trkpt>
      <trkpt lat="49.60987" lon="4.98114">
        <ele>282.28</ele>
        <time>2020-08-30T11:54:28Z</time>
      </trkpt>
      <trkpt lat="49.60974" lon="4.98137">
        <ele>280.84</ele>
        <time>2020-08-30T11:54:47Z</time>
      </trkpt>
      <trkpt lat="49.60961" lon="4.98162">
        <ele>277.96</ele>
        <time>2020-08-30T11:55:06Z</time>
      </trkpt>
      <trkpt lat="49.60947" lon="4.98182">
        <ele>274.11</ele>
        <time>2020-08-30T11:55:26Z</time>
      </trkpt>
      <trkpt lat="49.60931" lon="4.98211">
        <ele>277.48</ele>
        <time>2020-08-30T11:55:46Z</time>
      </trkpt>
      <trkpt lat="49.60922" lon="4.98241">
        <ele>279.88</ele>
        <time>2020-08-30T11:56:04Z</time>
      </trkpt>
      <trkpt lat="49.60913" lon="4.98267">
        <ele>278.92</ele>
        <time>2020-08-30T11:56:23Z</time>
      </trkpt>
      <trkpt lat="49.60904" lon="4.98296">
        <ele>276.04</ele>
        <time>2020-08-30T11:56:43Z</time>
      </trkpt>
      <trkpt lat="49.60893" lon="4.98324">
        <ele>277.48</ele>
        <time>2020-08-30T11:57:01Z</time>
      </trkpt>
      <trkpt lat="49.60887" lon="4.98345">
        <ele>279.88</ele>
        <time>2020-08-30T11:57:16Z</time>
      </trkpt>
      <trkpt lat="49.60878" lon="4.98365">
        <ele>278.92</ele>
        <time>2020-08-30T11:57:32Z</time>
      </trkpt>
      <trkpt lat="49.60869" lon="4.98389">
        <ele>280.36</ele>
        <time>2020-08-30T11:57:49Z</time>
      </trkpt>
      <trkpt lat="49.60859" lon="4.98412">
        <ele>281.8</ele>
        <time>2020-08-30T11:58:06Z</time>
      </trkpt>
      <trkpt lat="49.60851" lon="4.98439">
        <ele>281.32</ele>
        <time>2020-08-30T11:58:25Z</time>
      </trkpt>
      <trkpt lat="49.6084" lon="4.98468">
        <ele>279.88</ele>
        <time>2020-08-30T11:58:43Z</time>
      </trkpt>
      <trkpt lat="49.60827" lon="4.98498">
        <ele>279.4</ele>
        <time>2020-08-30T11:59:02Z</time>
      </trkpt>
      <trkpt lat="49.60812" lon="4.98529">
        <ele>279.88</ele>
        <time>2020-08-30T11:59:20Z</time>
      </trkpt>
      <trkpt lat="49.60801" lon="4.9855">
        <ele>277.96</ele>
        <time>2020-08-30T11:59:37Z</time>
      </trkpt>
      <trkpt lat="49.60788" lon="4.98576">
        <ele>276.04</ele>
        <time>2020-08-30T11:59:56Z</time>
      </trkpt>
      <trkpt lat="49.60775" lon="4.98604">
        <ele>277</ele>
        <time>2020-08-30T12:00:16Z</time>
      </trkpt>
      <trkpt lat="49.60763" lon="4.98632">
        <ele>278.92</ele>
        <time>2020-08-30T12:00:37Z</time>
      </trkpt>
      <trkpt lat="49.6076" lon="4.98639">
        <ele>279.88</ele>
        <time>2020-08-30T12:00:43Z</time>
      </trkpt>
      <trkpt lat="49.6075" lon="4.98658">
        <ele>280.84</ele>
        <time>2020-08-30T12:00:59Z</time>
      </trkpt>
      <trkpt lat="49.60736" lon="4.98681">
        <ele>284.21</ele>
        <time>2020-08-30T12:01:16Z</time>
      </trkpt>
      <trkpt lat="49.60719" lon="4.98718">
        <ele>296.7</ele>
        <time>2020-08-30T12:01:33Z</time>
      </trkpt>
      <trkpt lat="49.60708" lon="4.9874">
        <ele>296.7</ele>
        <time>2020-08-30T12:01:53Z</time>
      </trkpt>
      <trkpt lat="49.60699" lon="4.98762">
        <ele>297.18</ele>
        <time>2020-08-30T12:02:09Z</time>
      </trkpt>
      <trkpt lat="49.60687" lon="4.98784">
        <ele>297.18</ele>
        <time>2020-08-30T12:02:27Z</time>
      </trkpt>
      <trkpt lat="49.60671" lon="4.98816">
        <ele>298.63</ele>
        <time>2020-08-30T12:02:47Z</time>
      </trkpt>
      <trkpt lat="49.60661" lon="4.98837">
        <ele>296.7</ele>
        <time>2020-08-30T12:03:04Z</time>
      </trkpt>
      <trkpt lat="49.60648" lon="4.98866">
        <ele>295.74</ele>
        <time>2020-08-30T12:03:24Z</time>
      </trkpt>
      <trkpt lat="49.60638" lon="4.98887">
        <ele>293.82</ele>
        <time>2020-08-30T12:03:43Z</time>
      </trkpt>
      <trkpt lat="49.6063" lon="4.98898">
        <ele>294.3</ele>
        <time>2020-08-30T12:03:54Z</time>
      </trkpt>
      <trkpt lat="49.60609" lon="4.98917">
        <ele>302.47</ele>
        <time>2020-08-30T12:04:10Z</time>
      </trkpt>
      <trkpt lat="49.60589" lon="4.98918">
        <ele>303.91</ele>
        <time>2020-08-30T12:04:27Z</time>
      </trkpt>
      <trkpt lat="49.60567" lon="4.98913">
        <ele>305.36</ele>
        <time>2020-08-30T12:04:46Z</time>
      </trkpt>
      <trkpt lat="49.60551" lon="4.9891">
        <ele>301.99</ele>
        <time>2020-08-30T12:05:03Z</time>
      </trkpt>
      <trkpt lat="49.6055" lon="4.9891">
        <ele>301.99</ele>
        <time>2020-08-30T12:05:04Z</time>
      </trkpt>
      <trkpt lat="49.60529" lon="4.98905">
        <ele>301.51</ele>
        <time>2020-08-30T12:05:22Z</time>
      </trkpt>
      <trkpt lat="49.60506" lon="4.98897">
        <ele>304.39</ele>
        <time>2020-08-30T12:05:42Z</time>
      </trkpt>
      <trkpt lat="49.60488" lon="4.98881">
        <ele>308.24</ele>
        <time>2020-08-30T12:05:59Z</time>
      </trkpt>
      <trkpt lat="49.60468" lon="4.98867">
        <ele>309.2</ele>
        <time>2020-08-30T12:06:17Z</time>
      </trkpt>
      <trkpt lat="49.60454" lon="4.98857">
        <ele>309.2</ele>
        <time>2020-08-30T12:06:32Z</time>
      </trkpt>
      <trkpt lat="49.60438" lon="4.98845">
        <ele>310.64</ele>
        <time>2020-08-30T12:06:49Z</time>
      </trkpt>
      <trkpt lat="49.60427" lon="4.9884">
        <ele>309.68</ele>
        <time>2020-08-30T12:06:58Z</time>
      </trkpt>
      <trkpt lat="49.60408" lon="4.98832">
        <ele>305.84</ele>
        <time>2020-08-30T12:07:15Z</time>
      </trkpt>
      <trkpt lat="49.60392" lon="4.98826">
        <ele>302.47</ele>
        <time>2020-08-30T12:07:31Z</time>
      </trkpt>
      <trkpt lat="49.60379" lon="4.98824">
        <ele>298.15</ele>
        <time>2020-08-30T12:07:45Z</time>
      </trkpt>
      <trkpt lat="49.60363" lon="4.98815">
        <ele>296.22</ele>
        <time>2020-08-30T12:07:59Z</time>
      </trkpt>
      <trkpt lat="49.60351" lon="4.98804">
        <ele>292.86</ele>
        <time>2020-08-30T12:08:13Z</time>
      </trkpt>
      <trkpt lat="49.60339" lon="4.98797">
        <ele>287.09</ele>
        <time>2020-08-30T12:08:29Z</time>
      </trkpt>
      <trkpt lat="49.60326" lon="4.98794">
        <ele>288.05</ele>
        <time>2020-08-30T12:08:40Z</time>
      </trkpt>
      <trkpt lat="49.6031" lon="4.98788">
        <ele>287.57</ele>
        <time>2020-08-30T12:08:55Z</time>
      </trkpt>
      <trkpt lat="49.60296" lon="4.98783">
        <ele>285.65</ele>
        <time>2020-08-30T12:09:09Z</time>
      </trkpt>
      <trkpt lat="49.60279" lon="4.98774">
        <ele>288.05</ele>
        <time>2020-08-30T12:09:24Z</time>
      </trkpt>
      <trkpt lat="49.60258" lon="4.98768">
        <ele>294.3</ele>
        <time>2020-08-30T12:09:41Z</time>
      </trkpt>
      <trkpt lat="49.60254" lon="4.98767">
        <ele>294.78</ele>
        <time>2020-08-30T12:09:44Z</time>
      </trkpt>
      <trkpt lat="49.6024" lon="4.98767">
        <ele>291.9</ele>
        <time>2020-08-30T12:09:58Z</time>
      </trkpt>
      <trkpt lat="49.6022" lon="4.98763">
        <ele>292.86</ele>
        <time>2020-08-30T12:10:16Z</time>
      </trkpt>
      <trkpt lat="49.60202" lon="4.98758">
        <ele>294.78</ele>
        <time>2020-08-30T12:10:33Z</time>
      </trkpt>
      <trkpt lat="49.60187" lon="4.98749">
        <ele>294.3</ele>
        <time>2020-08-30T12:10:49Z</time>
      </trkpt>
      <trkpt lat="49.6017" lon="4.98729">
        <ele>295.26</ele>
        <time>2020-08-30T12:11:08Z</time>
      </trkpt>
      <trkpt lat="49.60156" lon="4.98711">
        <ele>296.22</ele>
        <time>2020-08-30T12:11:24Z</time>
      </trkpt>
      <trkpt lat="49.60138" lon="4.98692">
        <ele>297.18</ele>
        <time>2020-08-30T12:11:42Z</time>
      </trkpt>
      <trkpt lat="49.60124" lon="4.98675">
        <ele>297.67</ele>
        <time>2020-08-30T12:11:58Z</time>
      </trkpt>
      <trkpt lat="49.60114" lon="4.98654">
        <ele>301.03</ele>
        <time>2020-08-30T12:12:15Z</time>
      </trkpt>
      <trkpt lat="49.60103" lon="4.98636">
        <ele>302.95</ele>
        <time>2020-08-30T12:12:29Z</time>
      </trkpt>
      <trkpt lat="49.60089" lon="4.98618">
        <ele>303.43</ele>
        <time>2020-08-30T12:12:46Z</time>
      </trkpt>
      <trkpt lat="49.60076" lon="4.98608">
        <ele>302.47</ele>
        <time>2020-08-30T12:13:01Z</time>
      </trkpt>
      <trkpt lat="49.60067" lon="4.98609">
        <ele>303.91</ele>
        <time>2020-08-30T12:13:10Z</time>
      </trkpt>
      <trkpt lat="49.60053" lon="4.98618">
        <ele>303.91</ele>
        <time>2020-08-30T12:13:25Z</time>
      </trkpt>
      <trkpt lat="49.60032" lon="4.98617">
        <ele>301.03</ele>
        <time>2020-08-30T12:13:44Z</time>
      </trkpt>
      <trkpt lat="49.60015" lon="4.98611">
        <ele>300.07</ele>
        <time>2020-08-30T12:14:01Z</time>
      </trkpt>
      <trkpt lat="49.6" lon="4.98603">
        <ele>300.07</ele>
        <time>2020-08-30T12:14:16Z</time>
      </trkpt>
      <trkpt lat="49.59985" lon="4.98592">
        <ele>300.55</ele>
        <time>2020-08-30T12:14:32Z</time>
      </trkpt>
      <trkpt lat="49.59967" lon="4.98581">
        <ele>301.03</ele>
        <time>2020-08-30T12:14:48Z</time>
      </trkpt>
      <trkpt lat="49.59949" lon="4.98575">
        <ele>300.55</ele>
        <time>2020-08-30T12:15:07Z</time>
      </trkpt>
      <trkpt lat="49.59931" lon="4.98567">
        <ele>300.07</ele>
        <time>2020-08-30T12:15:23Z</time>
      </trkpt>
      <trkpt lat="49.5992" lon="4.98554">
        <ele>301.51</ele>
        <time>2020-08-30T12:15:37Z</time>
      </trkpt>
      <trkpt lat="49.59918" lon="4.98548">
        <ele>302.47</ele>
        <time>2020-08-30T12:15:41Z</time>
      </trkpt>
      <trkpt lat="49.59915" lon="4.9854">
        <ele>301.99</ele>
        <time>2020-08-30T12:15:47Z</time>
      </trkpt>
      <trkpt lat="49.59905" lon="4.98508">
        <ele>307.28</ele>
        <time>2020-08-30T12:16:05Z</time>
      </trkpt>
      <trkpt lat="49.59896" lon="4.98482">
        <ele>310.64</ele>
        <time>2020-08-30T12:16:22Z</time>
      </trkpt>
      <trkpt lat="49.59892" lon="4.98475">
        <ele>309.2</ele>
        <time>2020-08-30T12:16:31Z</time>
      </trkpt>
      <trkpt lat="49.59884" lon="4.98452">
        <ele>308.72</ele>
        <time>2020-08-30T12:16:46Z</time>
      </trkpt>
      <trkpt lat="49.59873" lon="4.98427">
        <ele>309.2</ele>
        <time>2020-08-30T12:17:03Z</time>
      </trkpt>
      <trkpt lat="49.5986" lon="4.98402">
        <ele>307.76</ele>
        <time>2020-08-30T12:17:21Z</time>
      </trkpt>
      <trkpt lat="49.5985" lon="4.98379">
        <ele>305.36</ele>
        <time>2020-08-30T12:17:38Z</time>
      </trkpt>
      <trkpt lat="49.5984" lon="4.98348">
        <ele>305.84</ele>
        <time>2020-08-30T12:17:56Z</time>
      </trkpt>
      <trkpt lat="49.59832" lon="4.9833">
        <ele>302.95</ele>
        <time>2020-08-30T12:18:09Z</time>
      </trkpt>
      <trkpt lat="49.59819" lon="4.98307">
        <ele>299.59</ele>
        <time>2020-08-30T12:18:27Z</time>
      </trkpt>
      <trkpt lat="49.59817" lon="4.98298">
        <ele>299.11</ele>
        <time>2020-08-30T12:18:33Z</time>
      </trkpt>
      <trkpt lat="49.59809" lon="4.98266">
        <ele>302.95</ele>
        <time>2020-08-30T12:18:52Z</time>
      </trkpt>
      <trkpt lat="49.59808" lon="4.98261">
        <ele>303.43</ele>
        <time>2020-08-30T12:18:55Z</time>
      </trkpt>
      <trkpt lat="49.59807" lon="4.98256">
        <ele>303.43</ele>
        <time>2020-08-30T12:18:58Z</time>
      </trkpt>
      <trkpt lat="49.59799" lon="4.9823">
        <ele>304.39</ele>
        <time>2020-08-30T12:19:14Z</time>
      </trkpt>
      <trkpt lat="49.59794" lon="4.98216">
        <ele>303.91</ele>
        <time>2020-08-30T12:19:23Z</time>
      </trkpt>
      <trkpt lat="49.59783" lon="4.98188">
        <ele>301.99</ele>
        <time>2020-08-30T12:19:44Z</time>
      </trkpt>
      <trkpt lat="49.59783" lon="4.98186">
        <ele>301.99</ele>
        <time>2020-08-30T12:19:45Z</time>
      </trkpt>
      <trkpt lat="49.59777" lon="4.98169">
        <ele>302.95</ele>
        <time>2020-08-30T12:19:55Z</time>
      </trkpt>
      <trkpt lat="49.59767" lon="4.98144">
        <ele>301.51</ele>
        <time>2020-08-30T12:20:12Z</time>
      </trkpt>
      <trkpt lat="49.59755" lon="4.98117">
        <ele>299.59</ele>
        <time>2020-08-30T12:20:30Z</time>
      </trkpt>
      <trkpt lat="49.59747" lon="4.98092">
        <ele>299.59</ele>
        <time>2020-08-30T12:20:47Z</time>
      </trkpt>
      <trkpt lat="49.59734" lon="4.98061">
        <ele>301.03</ele>
        <time>2020-08-30T12:21:08Z</time>
      </trkpt>
      <trkpt lat="49.59722" lon="4.98036">
        <ele>300.07</ele>
        <time>2020-08-30T12:21:25Z</time>
      </trkpt>
      <trkpt lat="49.5971" lon="4.98009">
        <ele>300.07</ele>
        <time>2020-08-30T12:21:45Z</time>
      </trkpt>
      <trkpt lat="49.59698" lon="4.97986">
        <ele>296.22</ele>
        <time>2020-08-30T12:22:03Z</time>
      </trkpt>
      <trkpt lat="49.59688" lon="4.97973">
        <ele>295.26</ele>
        <time>2020-08-30T12:22:16Z</time>
      </trkpt>
      <trkpt lat="49.59677" lon="4.97947">
        <ele>295.26</ele>
        <time>2020-08-30T12:22:34Z</time>
      </trkpt>
      <trkpt lat="49.59666" lon="4.97925">
        <ele>293.82</ele>
        <time>2020-08-30T12:22:51Z</time>
      </trkpt>
      <trkpt lat="49.59659" lon="4.97907">
        <ele>294.3</ele>
        <time>2020-08-30T12:23:03Z</time>
      </trkpt>
      <trkpt lat="49.59648" lon="4.97877">
        <ele>296.7</ele>
        <time>2020-08-30T12:23:22Z</time>
      </trkpt>
      <trkpt lat="49.59646" lon="4.97872">
        <ele>297.67</ele>
        <time>2020-08-30T12:23:26Z</time>
      </trkpt>
      <trkpt lat="49.59635" lon="4.9785">
        <ele>297.18</ele>
        <time>2020-08-30T12:23:42Z</time>
      </trkpt>
      <trkpt lat="49.59627" lon="4.97832">
        <ele>298.63</ele>
        <time>2020-08-30T12:23:56Z</time>
      </trkpt>
      <trkpt lat="49.59615" lon="4.97805">
        <ele>300.07</ele>
        <time>2020-08-30T12:24:14Z</time>
      </trkpt>
      <trkpt lat="49.59601" lon="4.97778">
        <ele>300.55</ele>
        <time>2020-08-30T12:24:34Z</time>
      </trkpt>
      <trkpt lat="49.59588" lon="4.97755">
        <ele>299.59</ele>
        <time>2020-08-30T12:24:51Z</time>
      </trkpt>
      <trkpt lat="49.59577" lon="4.97731">
        <ele>298.15</ele>
        <time>2020-08-30T12:25:08Z</time>
      </trkpt>
      <trkpt lat="49.59565" lon="4.97711">
        <ele>296.7</ele>
        <time>2020-08-30T12:25:27Z</time>
      </trkpt>
      <trkpt lat="49.59564" lon="4.97711">
        <ele>296.7</ele>
        <time>2020-08-30T12:25:46Z</time>
      </trkpt>
      <trkpt lat="49.59565" lon="4.97713">
        <ele>297.18</ele>
        <time>2020-08-30T12:26:08Z</time>
      </trkpt>
      <trkpt lat="49.59564" lon="4.97713">
        <ele>298.63</ele>
        <time>2020-08-30T12:26:41Z</time>
      </trkpt>
      <trkpt lat="49.59564" lon="4.9771">
        <ele>301.03</ele>
        <time>2020-08-30T12:27:03Z</time>
      </trkpt>
      <trkpt lat="49.59564" lon="4.9771">
        <ele>301.51</ele>
        <time>2020-08-30T12:27:18Z</time>
      </trkpt>
      <trkpt lat="49.59564" lon="4.97712">
        <ele>300.55</ele>
        <time>2020-08-30T12:27:44Z</time>
      </trkpt>
      <trkpt lat="49.59564" lon="4.97713">
        <ele>300.55</ele>
        <time>2020-08-30T12:28:08Z</time>
      </trkpt>
      <trkpt lat="49.59565" lon="4.97713">
        <ele>299.59</ele>
        <time>2020-08-30T12:28:23Z</time>
      </trkpt>
      <trkpt lat="49.59566" lon="4.97713">
        <ele>300.07</ele>
        <time>2020-08-30T12:28:50Z</time>
      </trkpt>
      <trkpt lat="49.59566" lon="4.97712">
        <ele>299.59</ele>
        <time>2020-08-30T12:29:06Z</time>
      </trkpt>
      <trkpt lat="49.59566" lon="4.97712">
        <ele>299.59</ele>
        <time>2020-08-30T12:29:11Z</time>
      </trkpt>
      <trkpt lat="49.59563" lon="4.97706">
        <ele>299.59</ele>
        <time>2020-08-30T12:29:17Z</time>
      </trkpt>
      <trkpt lat="49.5955" lon="4.9768">
        <ele>299.11</ele>
        <time>2020-08-30T12:29:35Z</time>
      </trkpt>
      <trkpt lat="49.59539" lon="4.97657">
        <ele>298.15</ele>
        <time>2020-08-30T12:29:51Z</time>
      </trkpt>
      <trkpt lat="49.59526" lon="4.97637">
        <ele>298.15</ele>
        <time>2020-08-30T12:30:06Z</time>
      </trkpt>
      <trkpt lat="49.59513" lon="4.97614">
        <ele>297.67</ele>
        <time>2020-08-30T12:30:24Z</time>
      </trkpt>
      <trkpt lat="49.59505" lon="4.976">
        <ele>297.67</ele>
        <time>2020-08-30T12:30:35Z</time>
      </trkpt>
      <trkpt lat="49.5949" lon="4.97572">
        <ele>297.67</ele>
        <time>2020-08-30T12:30:55Z</time>
      </trkpt>
      <trkpt lat="49.59478" lon="4.97551">
        <ele>297.67</ele>
        <time>2020-08-30T12:31:11Z</time>
      </trkpt>
      <trkpt lat="49.59467" lon="4.97533">
        <ele>296.7</ele>
        <time>2020-08-30T12:31:27Z</time>
      </trkpt>
      <trkpt lat="49.59465" lon="4.97531">
        <ele>296.7</ele>
        <time>2020-08-30T12:31:29Z</time>
      </trkpt>
      <trkpt lat="49.59462" lon="4.97522">
        <ele>296.22</ele>
        <time>2020-08-30T12:31:35Z</time>
      </trkpt>
      <trkpt lat="49.59445" lon="4.97493">
        <ele>295.26</ele>
        <time>2020-08-30T12:31:57Z</time>
      </trkpt>
      <trkpt lat="49.59439" lon="4.97482">
        <ele>295.26</ele>
        <time>2020-08-30T12:32:06Z</time>
      </trkpt>
      <trkpt lat="49.59422" lon="4.97452">
        <ele>295.26</ele>
        <time>2020-08-30T12:32:29Z</time>
      </trkpt>
      <trkpt lat="49.59413" lon="4.97435">
        <ele>293.82</ele>
        <time>2020-08-30T12:32:44Z</time>
      </trkpt>
      <trkpt lat="49.59394" lon="4.97448">
        <ele>293.34</ele>
        <time>2020-08-30T12:33:03Z</time>
      </trkpt>
      <trkpt lat="49.59379" lon="4.97473">
        <ele>294.78</ele>
        <time>2020-08-30T12:33:22Z</time>
      </trkpt>
      <trkpt lat="49.59363" lon="4.97497">
        <ele>296.22</ele>
        <time>2020-08-30T12:33:42Z</time>
      </trkpt>
      <trkpt lat="49.59345" lon="4.97524">
        <ele>298.63</ele>
        <time>2020-08-30T12:34:03Z</time>
      </trkpt>
      <trkpt lat="49.59327" lon="4.97549">
        <ele>301.03</ele>
        <time>2020-08-30T12:34:24Z</time>
      </trkpt>
      <trkpt lat="49.59309" lon="4.97577">
        <ele>302.95</ele>
        <time>2020-08-30T12:34:46Z</time>
      </trkpt>
      <trkpt lat="49.59295" lon="4.976">
        <ele>305.36</ele>
        <time>2020-08-30T12:35:04Z</time>
      </trkpt>
      <trkpt lat="49.59278" lon="4.97619">
        <ele>306.8</ele>
        <time>2020-08-30T12:35:24Z</time>
      </trkpt>
      <trkpt lat="49.59261" lon="4.97637">
        <ele>306.32</ele>
        <time>2020-08-30T12:35:42Z</time>
      </trkpt>
      <trkpt lat="49.59242" lon="4.97655">
        <ele>304.39</ele>
        <time>2020-08-30T12:36:02Z</time>
      </trkpt>
      <trkpt lat="49.59234" lon="4.97639">
        <ele>305.84</ele>
        <time>2020-08-30T12:36:16Z</time>
      </trkpt>
      <trkpt lat="49.59229" lon="4.97603">
        <ele>307.76</ele>
        <time>2020-08-30T12:36:37Z</time>
      </trkpt>
      <trkpt lat="49.59227" lon="4.97573">
        <ele>305.84</ele>
        <time>2020-08-30T12:36:55Z</time>
      </trkpt>
      <trkpt lat="49.59223" lon="4.97542">
        <ele>305.84</ele>
        <time>2020-08-30T12:37:14Z</time>
      </trkpt>
      <trkpt lat="49.59219" lon="4.97505">
        <ele>306.32</ele>
        <time>2020-08-30T12:37:37Z</time>
      </trkpt>
      <trkpt lat="49.59215" lon="4.97472">
        <ele>306.32</ele>
        <time>2020-08-30T12:37:56Z</time>
      </trkpt>
      <trkpt lat="49.59211" lon="4.97432">
        <ele>305.36</ele>
        <time>2020-08-30T12:38:20Z</time>
      </trkpt>
      <trkpt lat="49.59207" lon="4.97402">
        <ele>304.88</ele>
        <time>2020-08-30T12:38:39Z</time>
      </trkpt>
      <trkpt lat="49.59204" lon="4.9737">
        <ele>303.43</ele>
        <time>2020-08-30T12:38:58Z</time>
      </trkpt>
      <trkpt lat="49.592" lon="4.97339">
        <ele>301.51</ele>
        <time>2020-08-30T12:39:16Z</time>
      </trkpt>
      <trkpt lat="49.59195" lon="4.97304">
        <ele>300.07</ele>
        <time>2020-08-30T12:39:37Z</time>
      </trkpt>
      <trkpt lat="49.59192" lon="4.97274">
        <ele>299.59</ele>
        <time>2020-08-30T12:39:55Z</time>
      </trkpt>
      <trkpt lat="49.59188" lon="4.9724">
        <ele>298.63</ele>
        <time>2020-08-30T12:40:15Z</time>
      </trkpt>
      <trkpt lat="49.59183" lon="4.97206">
        <ele>295.74</ele>
        <time>2020-08-30T12:40:34Z</time>
      </trkpt>
      <trkpt lat="49.59181" lon="4.97172">
        <ele>293.34</ele>
        <time>2020-08-30T12:40:55Z</time>
      </trkpt>
      <trkpt lat="49.59177" lon="4.97138">
        <ele>292.38</ele>
        <time>2020-08-30T12:41:15Z</time>
      </trkpt>
      <trkpt lat="49.59172" lon="4.97103">
        <ele>290.46</ele>
        <time>2020-08-30T12:41:35Z</time>
      </trkpt>
      <trkpt lat="49.59168" lon="4.97071">
        <ele>289.01</ele>
        <time>2020-08-30T12:41:53Z</time>
      </trkpt>
      <trkpt lat="49.59163" lon="4.9704">
        <ele>287.09</ele>
        <time>2020-08-30T12:42:11Z</time>
      </trkpt>
      <trkpt lat="49.59162" lon="4.97011">
        <ele>286.13</ele>
        <time>2020-08-30T12:42:28Z</time>
      </trkpt>
      <trkpt lat="49.59159" lon="4.9699">
        <ele>286.61</ele>
        <time>2020-08-30T12:42:45Z</time>
      </trkpt>
      <trkpt lat="49.59158" lon="4.96988">
        <ele>287.57</ele>
        <time>2020-08-30T12:43:01Z</time>
      </trkpt>
      <trkpt lat="49.59158" lon="4.96989">
        <ele>288.53</ele>
        <time>2020-08-30T12:43:18Z</time>
      </trkpt>
      <trkpt lat="49.59158" lon="4.96987">
        <ele>289.01</ele>
        <time>2020-08-30T12:43:36Z</time>
      </trkpt>
      <trkpt lat="49.59156" lon="4.96957">
        <ele>287.09</ele>
        <time>2020-08-30T12:43:54Z</time>
      </trkpt>
      <trkpt lat="49.59151" lon="4.96922">
        <ele>286.61</ele>
        <time>2020-08-30T12:44:15Z</time>
      </trkpt>
      <trkpt lat="49.59147" lon="4.9689">
        <ele>283.73</ele>
        <time>2020-08-30T12:44:34Z</time>
      </trkpt>
      <trkpt lat="49.59142" lon="4.96852">
        <ele>281.8</ele>
        <time>2020-08-30T12:44:55Z</time>
      </trkpt>
      <trkpt lat="49.59137" lon="4.96817">
        <ele>280.84</ele>
        <time>2020-08-30T12:45:14Z</time>
      </trkpt>
      <trkpt lat="49.59133" lon="4.96779">
        <ele>277.96</ele>
        <time>2020-08-30T12:45:35Z</time>
      </trkpt>
      <trkpt lat="49.59132" lon="4.96738">
        <ele>277.48</ele>
        <time>2020-08-30T12:45:58Z</time>
      </trkpt>
      <trkpt lat="49.59132" lon="4.96706">
        <ele>276.04</ele>
        <time>2020-08-30T12:46:15Z</time>
      </trkpt>
      <trkpt lat="49.59134" lon="4.96676">
        <ele>272.67</ele>
        <time>2020-08-30T12:46:33Z</time>
      </trkpt>
      <trkpt lat="49.59137" lon="4.96649">
        <ele>268.35</ele>
        <time>2020-08-30T12:46:48Z</time>
      </trkpt>
      <trkpt lat="49.59142" lon="4.96614">
        <ele>263.06</ele>
        <time>2020-08-30T12:47:07Z</time>
      </trkpt>
      <trkpt lat="49.59147" lon="4.96583">
        <ele>259.21</ele>
        <time>2020-08-30T12:47:25Z</time>
      </trkpt>
      <trkpt lat="49.5915" lon="4.96556">
        <ele>255.85</ele>
        <time>2020-08-30T12:47:41Z</time>
      </trkpt>
      <trkpt lat="49.59155" lon="4.96516">
        <ele>252</ele>
        <time>2020-08-30T12:48:02Z</time>
      </trkpt>
      <trkpt lat="49.59153" lon="4.96483">
        <ele>248.16</ele>
        <time>2020-08-30T12:48:21Z</time>
      </trkpt>
      <trkpt lat="49.5915" lon="4.96451">
        <ele>243.35</ele>
        <time>2020-08-30T12:48:40Z</time>
      </trkpt>
      <trkpt lat="49.59149" lon="4.96421">
        <ele>239.99</ele>
        <time>2020-08-30T12:48:58Z</time>
      </trkpt>
      <trkpt lat="49.59147" lon="4.96393">
        <ele>235.66</ele>
        <time>2020-08-30T12:49:16Z</time>
      </trkpt>
      <trkpt lat="49.59146" lon="4.96385">
        <ele>234.22</ele>
        <time>2020-08-30T12:49:22Z</time>
      </trkpt>
      <trkpt lat="49.59141" lon="4.96353">
        <ele>231.81</ele>
        <time>2020-08-30T12:49:42Z</time>
      </trkpt>
      <trkpt lat="49.59135" lon="4.96324">
        <ele>230.37</ele>
        <time>2020-08-30T12:50:01Z</time>
      </trkpt>
      <trkpt lat="49.59129" lon="4.96302">
        <ele>229.89</ele>
        <time>2020-08-30T12:50:14Z</time>
      </trkpt>
      <trkpt lat="49.5912" lon="4.96274">
        <ele>229.89</ele>
        <time>2020-08-30T12:50:31Z</time>
      </trkpt>
      <trkpt lat="49.5911" lon="4.96248">
        <ele>226.53</ele>
        <time>2020-08-30T12:50:48Z</time>
      </trkpt>
      <trkpt lat="49.59098" lon="4.96215">
        <ele>222.2</ele>
        <time>2020-08-30T12:51:07Z</time>
      </trkpt>
      <trkpt lat="49.59085" lon="4.96184">
        <ele>218.84</ele>
        <time>2020-08-30T12:51:26Z</time>
      </trkpt>
      <trkpt lat="49.59073" lon="4.96155">
        <ele>218.36</ele>
        <time>2020-08-30T12:51:45Z</time>
      </trkpt>
      <trkpt lat="49.59063" lon="4.96128">
        <ele>215.47</ele>
        <time>2020-08-30T12:52:02Z</time>
      </trkpt>
      <trkpt lat="49.59054" lon="4.96098">
        <ele>213.55</ele>
        <time>2020-08-30T12:52:21Z</time>
      </trkpt>
      <trkpt lat="49.59045" lon="4.96062">
        <ele>212.59</ele>
        <time>2020-08-30T12:52:41Z</time>
      </trkpt>
      <trkpt lat="49.59038" lon="4.9603">
        <ele>209.22</ele>
        <time>2020-08-30T12:53:00Z</time>
      </trkpt>
      <trkpt lat="49.59035" lon="4.96006">
        <ele>207.78</ele>
        <time>2020-08-30T12:53:15Z</time>
      </trkpt>
      <trkpt lat="49.59032" lon="4.9597">
        <ele>209.22</ele>
        <time>2020-08-30T12:53:35Z</time>
      </trkpt>
      <trkpt lat="49.59032" lon="4.95929">
        <ele>207.78</ele>
        <time>2020-08-30T12:53:57Z</time>
      </trkpt>
      <trkpt lat="49.59032" lon="4.95889">
        <ele>205.86</ele>
        <time>2020-08-30T12:54:19Z</time>
      </trkpt>
      <trkpt lat="49.59037" lon="4.95857">
        <ele>204.42</ele>
        <time>2020-08-30T12:54:37Z</time>
      </trkpt>
      <trkpt lat="49.59042" lon="4.9583">
        <ele>201.53</ele>
        <time>2020-08-30T12:54:54Z</time>
      </trkpt>
      <trkpt lat="49.59051" lon="4.95794">
        <ele>201.53</ele>
        <time>2020-08-30T12:55:14Z</time>
      </trkpt>
      <trkpt lat="49.5905" lon="4.95774">
        <ele>205.38</ele>
        <time>2020-08-30T12:55:28Z</time>
      </trkpt>
      <trkpt lat="49.59039" lon="4.95739">
        <ele>200.57</ele>
        <time>2020-08-30T12:55:48Z</time>
      </trkpt>
      <trkpt lat="49.59036" lon="4.95704">
        <ele>199.61</ele>
        <time>2020-08-30T12:56:06Z</time>
      </trkpt>
      <trkpt lat="49.59034" lon="4.9567">
        <ele>198.17</ele>
        <time>2020-08-30T12:56:25Z</time>
      </trkpt>
      <trkpt lat="49.59029" lon="4.95634">
        <ele>196.25</ele>
        <time>2020-08-30T12:56:46Z</time>
      </trkpt>
      <trkpt lat="49.59026" lon="4.95601">
        <ele>195.77</ele>
        <time>2020-08-30T12:57:05Z</time>
      </trkpt>
      <trkpt lat="49.59022" lon="4.95571">
        <ele>195.28</ele>
        <time>2020-08-30T12:57:23Z</time>
      </trkpt>
      <trkpt lat="49.59016" lon="4.95535">
        <ele>196.25</ele>
        <time>2020-08-30T12:57:42Z</time>
      </trkpt>
      <trkpt lat="49.59012" lon="4.95502">
        <ele>198.17</ele>
        <time>2020-08-30T12:58:00Z</time>
      </trkpt>
      <trkpt lat="49.59007" lon="4.95468">
        <ele>199.13</ele>
        <time>2020-08-30T12:58:20Z</time>
      </trkpt>
      <trkpt lat="49.59005" lon="4.95433">
        <ele>202.49</ele>
        <time>2020-08-30T12:58:39Z</time>
      </trkpt>
      <trkpt lat="49.59006" lon="4.95429">
        <ele>202.98</ele>
        <time>2020-08-30T12:58:41Z</time>
      </trkpt>
      <trkpt lat="49.59017" lon="4.95418">
        <ele>203.46</ele>
        <time>2020-08-30T12:58:51Z</time>
      </trkpt>
      <trkpt lat="49.5904" lon="4.9542">
        <ele>199.61</ele>
        <time>2020-08-30T12:59:11Z</time>
      </trkpt>
      <trkpt lat="49.59062" lon="4.9542">
        <ele>197.69</ele>
        <time>2020-08-30T12:59:30Z</time>
      </trkpt>
      <trkpt lat="49.59089" lon="4.95422">
        <ele>197.69</ele>
        <time>2020-08-30T12:59:52Z</time>
      </trkpt>
      <trkpt lat="49.59108" lon="4.95421">
        <ele>198.17</ele>
        <time>2020-08-30T13:00:07Z</time>
      </trkpt>
      <trkpt lat="49.59131" lon="4.95422">
        <ele>197.69</ele>
        <time>2020-08-30T13:00:26Z</time>
      </trkpt>
      <trkpt lat="49.59157" lon="4.95423">
        <ele>197.69</ele>
        <time>2020-08-30T13:00:46Z</time>
      </trkpt>
      <trkpt lat="49.5918" lon="4.95419">
        <ele>196.25</ele>
        <time>2020-08-30T13:01:07Z</time>
      </trkpt>
      <trkpt lat="49.59201" lon="4.95419">
        <ele>196.25</ele>
        <time>2020-08-30T13:01:25Z</time>
      </trkpt>
      <trkpt lat="49.59226" lon="4.95417">
        <ele>196.73</ele>
        <time>2020-08-30T13:01:46Z</time>
      </trkpt>
      <trkpt lat="49.59248" lon="4.95413">
        <ele>197.21</ele>
        <time>2020-08-30T13:02:05Z</time>
      </trkpt>
      <trkpt lat="49.59268" lon="4.9541">
        <ele>195.77</ele>
        <time>2020-08-30T13:02:23Z</time>
      </trkpt>
      <trkpt lat="49.59295" lon="4.9541">
        <ele>196.73</ele>
        <time>2020-08-30T13:02:44Z</time>
      </trkpt>
      <trkpt lat="49.59319" lon="4.95416">
        <ele>198.17</ele>
        <time>2020-08-30T13:03:04Z</time>
      </trkpt>
      <trkpt lat="49.59342" lon="4.9543">
        <ele>199.13</ele>
        <time>2020-08-30T13:03:25Z</time>
      </trkpt>
      <trkpt lat="49.59362" lon="4.95445">
        <ele>199.13</ele>
        <time>2020-08-30T13:03:46Z</time>
      </trkpt>
      <trkpt lat="49.59382" lon="4.95458">
        <ele>199.13</ele>
        <time>2020-08-30T13:04:06Z</time>
      </trkpt>
      <trkpt lat="49.59401" lon="4.95473">
        <ele>200.09</ele>
        <time>2020-08-30T13:04:24Z</time>
      </trkpt>
      <trkpt lat="49.59415" lon="4.95481">
        <ele>199.61</ele>
        <time>2020-08-30T13:04:40Z</time>
      </trkpt>
      <trkpt lat="49.59418" lon="4.9548">
        <ele>199.61</ele>
        <time>2020-08-30T13:04:46Z</time>
      </trkpt>
      <trkpt lat="49.59401" lon="4.95457">
        <ele>201.53</ele>
        <time>2020-08-30T13:05:07Z</time>
      </trkpt>
      <trkpt lat="49.59387" lon="4.95433">
        <ele>202.49</ele>
        <time>2020-08-30T13:05:26Z</time>
      </trkpt>
      <trkpt lat="49.59377" lon="4.95404">
        <ele>201.53</ele>
        <time>2020-08-30T13:05:43Z</time>
      </trkpt>
      <trkpt lat="49.59368" lon="4.95371">
        <ele>202.01</ele>
        <time>2020-08-30T13:06:03Z</time>
      </trkpt>
      <trkpt lat="49.59358" lon="4.95341">
        <ele>203.94</ele>
        <time>2020-08-30T13:06:21Z</time>
      </trkpt>
      <trkpt lat="49.59348" lon="4.95308">
        <ele>205.86</ele>
        <time>2020-08-30T13:06:40Z</time>
      </trkpt>
      <trkpt lat="49.59339" lon="4.95279">
        <ele>204.9</ele>
        <time>2020-08-30T13:06:59Z</time>
      </trkpt>
      <trkpt lat="49.59328" lon="4.95245">
        <ele>204.9</ele>
        <time>2020-08-30T13:07:20Z</time>
      </trkpt>
      <trkpt lat="49.59319" lon="4.95217">
        <ele>204.42</ele>
        <time>2020-08-30T13:07:38Z</time>
      </trkpt>
      <trkpt lat="49.59311" lon="4.95188">
        <ele>205.38</ele>
        <time>2020-08-30T13:07:55Z</time>
      </trkpt>
      <trkpt lat="49.59309" lon="4.95176">
        <ele>204.9</ele>
        <time>2020-08-30T13:08:03Z</time>
      </trkpt>
      <trkpt lat="49.59307" lon="4.95171">
        <ele>205.38</ele>
        <time>2020-08-30T13:08:07Z</time>
      </trkpt>
      <trkpt lat="49.59303" lon="4.95136">
        <ele>205.38</ele>
        <time>2020-08-30T13:08:26Z</time>
      </trkpt>
      <trkpt lat="49.59299" lon="4.95104">
        <ele>206.82</ele>
        <time>2020-08-30T13:08:44Z</time>
      </trkpt>
      <trkpt lat="49.59295" lon="4.95072">
        <ele>206.82</ele>
        <time>2020-08-30T13:09:02Z</time>
      </trkpt>
      <trkpt lat="49.59291" lon="4.95038">
        <ele>208.26</ele>
        <time>2020-08-30T13:09:21Z</time>
      </trkpt>
      <trkpt lat="49.59286" lon="4.95003">
        <ele>208.74</ele>
        <time>2020-08-30T13:09:40Z</time>
      </trkpt>
      <trkpt lat="49.59282" lon="4.94971">
        <ele>209.7</ele>
        <time>2020-08-30T13:09:57Z</time>
      </trkpt>
      <trkpt lat="49.59279" lon="4.94938">
        <ele>211.63</ele>
        <time>2020-08-30T13:10:16Z</time>
      </trkpt>
      <trkpt lat="49.59278" lon="4.94923">
        <ele>211.63</ele>
        <time>2020-08-30T13:10:24Z</time>
      </trkpt>
      <trkpt lat="49.59274" lon="4.94887">
        <ele>213.07</ele>
        <time>2020-08-30T13:10:45Z</time>
      </trkpt>
      <trkpt lat="49.5927" lon="4.94855">
        <ele>214.03</ele>
        <time>2020-08-30T13:11:03Z</time>
      </trkpt>
      <trkpt lat="49.59268" lon="4.94824">
        <ele>214.99</ele>
        <time>2020-08-30T13:11:21Z</time>
      </trkpt>
      <trkpt lat="49.59266" lon="4.94787">
        <ele>214.99</ele>
        <time>2020-08-30T13:11:43Z</time>
      </trkpt>
      <trkpt lat="49.59264" lon="4.94751">
        <ele>215.95</ele>
        <time>2020-08-30T13:12:03Z</time>
      </trkpt>
      <trkpt lat="49.59261" lon="4.94708">
        <ele>217.4</ele>
        <time>2020-08-30T13:12:27Z</time>
      </trkpt>
      <trkpt lat="49.59259" lon="4.94673">
        <ele>218.84</ele>
        <time>2020-08-30T13:12:46Z</time>
      </trkpt>
      <trkpt lat="49.59258" lon="4.94639">
        <ele>218.84</ele>
        <time>2020-08-30T13:13:06Z</time>
      </trkpt>
      <trkpt lat="49.59258" lon="4.94612">
        <ele>218.36</ele>
        <time>2020-08-30T13:13:22Z</time>
      </trkpt>
      <trkpt lat="49.59259" lon="4.94599">
        <ele>217.88</ele>
        <time>2020-08-30T13:13:30Z</time>
      </trkpt>
      <trkpt lat="49.59258" lon="4.94566">
        <ele>219.32</ele>
        <time>2020-08-30T13:13:48Z</time>
      </trkpt>
      <trkpt lat="49.59259" lon="4.94532">
        <ele>220.28</ele>
        <time>2020-08-30T13:14:08Z</time>
      </trkpt>
      <trkpt lat="49.59258" lon="4.94501">
        <ele>219.8</ele>
        <time>2020-08-30T13:14:26Z</time>
      </trkpt>
      <trkpt lat="49.59256" lon="4.94467">
        <ele>219.8</ele>
        <time>2020-08-30T13:14:46Z</time>
      </trkpt>
      <trkpt lat="49.59253" lon="4.94439">
        <ele>220.28</ele>
        <time>2020-08-30T13:15:03Z</time>
      </trkpt>
      <trkpt lat="49.5925" lon="4.94405">
        <ele>222.2</ele>
        <time>2020-08-30T13:15:22Z</time>
      </trkpt>
      <trkpt lat="49.59248" lon="4.94381">
        <ele>222.68</ele>
        <time>2020-08-30T13:15:36Z</time>
      </trkpt>
      <trkpt lat="49.59246" lon="4.94365">
        <ele>223.64</ele>
        <time>2020-08-30T13:15:45Z</time>
      </trkpt>
      <trkpt lat="49.59242" lon="4.94329">
        <ele>223.16</ele>
        <time>2020-08-30T13:16:05Z</time>
      </trkpt>
      <trkpt lat="49.59238" lon="4.94298">
        <ele>221.24</ele>
        <time>2020-08-30T13:16:24Z</time>
      </trkpt>
      <trkpt lat="49.59235" lon="4.94274">
        <ele>217.88</ele>
        <time>2020-08-30T13:16:41Z</time>
      </trkpt>
      <trkpt lat="49.5923" lon="4.94246">
        <ele>215.95</ele>
        <time>2020-08-30T13:16:58Z</time>
      </trkpt>
      <trkpt lat="49.59224" lon="4.94224">
        <ele>211.15</ele>
        <time>2020-08-30T13:17:14Z</time>
      </trkpt>
      <trkpt lat="49.59209" lon="4.94198">
        <ele>211.15</ele>
        <time>2020-08-30T13:17:32Z</time>
      </trkpt>
      <trkpt lat="49.59196" lon="4.94174">
        <ele>211.63</ele>
        <time>2020-08-30T13:17:49Z</time>
      </trkpt>
      <trkpt lat="49.59182" lon="4.94146">
        <ele>213.55</ele>
        <time>2020-08-30T13:18:06Z</time>
      </trkpt>
      <trkpt lat="49.59171" lon="4.94117">
        <ele>217.4</ele>
        <time>2020-08-30T13:18:23Z</time>
      </trkpt>
      <trkpt lat="49.5917" lon="4.94104">
        <ele>220.76</ele>
        <time>2020-08-30T13:18:33Z</time>
      </trkpt>
      <trkpt lat="49.59185" lon="4.94128">
        <ele>226.53</ele>
        <time>2020-08-30T13:18:52Z</time>
      </trkpt>
      <trkpt lat="49.59195" lon="4.9415">
        <ele>227.01</ele>
        <time>2020-08-30T13:19:07Z</time>
      </trkpt>
      <trkpt lat="49.5921" lon="4.94172">
        <ele>225.09</ele>
        <time>2020-08-30T13:19:28Z</time>
      </trkpt>
      <trkpt lat="49.59227" lon="4.94189">
        <ele>225.09</ele>
        <time>2020-08-30T13:19:46Z</time>
      </trkpt>
      <trkpt lat="49.59245" lon="4.94211">
        <ele>226.05</ele>
        <time>2020-08-30T13:20:04Z</time>
      </trkpt>
      <trkpt lat="49.59255" lon="4.94231">
        <ele>226.53</ele>
        <time>2020-08-30T13:20:19Z</time>
      </trkpt>
      <trkpt lat="49.59264" lon="4.94244">
        <ele>226.53</ele>
        <time>2020-08-30T13:20:36Z</time>
      </trkpt>
      <trkpt lat="49.59268" lon="4.94241">
        <ele>228.45</ele>
        <time>2020-08-30T13:20:52Z</time>
      </trkpt>
      <trkpt lat="49.59269" lon="4.94241">
        <ele>230.37</ele>
        <time>2020-08-30T13:21:13Z</time>
      </trkpt>
      <trkpt lat="49.59269" lon="4.94242">
        <ele>231.81</ele>
        <time>2020-08-30T13:21:33Z</time>
      </trkpt>
      <trkpt lat="49.5927" lon="4.94242">
        <ele>230.85</ele>
        <time>2020-08-30T13:21:58Z</time>
      </trkpt>
      <trkpt lat="49.5927" lon="4.94242">
        <ele>230.85</ele>
        <time>2020-08-30T13:22:21Z</time>
      </trkpt>
      <trkpt lat="49.5927" lon="4.94243">
        <ele>230.85</ele>
        <time>2020-08-30T13:22:45Z</time>
      </trkpt>
      <trkpt lat="49.59269" lon="4.94244">
        <ele>231.33</ele>
        <time>2020-08-30T13:23:08Z</time>
      </trkpt>
      <trkpt lat="49.5927" lon="4.94245">
        <ele>231.81</ele>
        <time>2020-08-30T13:23:28Z</time>
      </trkpt>
      <trkpt lat="49.5927" lon="4.94245">
        <ele>231.81</ele>
        <time>2020-08-30T13:23:52Z</time>
      </trkpt>
      <trkpt lat="49.5927" lon="4.94245">
        <ele>231.81</ele>
        <time>2020-08-30T13:24:15Z</time>
      </trkpt>
      <trkpt lat="49.5927" lon="4.94244">
        <ele>232.78</ele>
        <time>2020-08-30T13:24:41Z</time>
      </trkpt>
      <trkpt lat="49.5927" lon="4.94245">
        <ele>233.26</ele>
        <time>2020-08-30T13:24:56Z</time>
      </trkpt>
      <trkpt lat="49.59271" lon="4.94244">
        <ele>233.74</ele>
        <time>2020-08-30T13:25:17Z</time>
      </trkpt>
      <trkpt lat="49.59271" lon="4.94245">
        <ele>234.22</ele>
        <time>2020-08-30T13:25:45Z</time>
      </trkpt>
      <trkpt lat="49.5927" lon="4.94245">
        <ele>234.22</ele>
        <time>2020-08-30T13:26:02Z</time>
      </trkpt>
      <trkpt lat="49.5927" lon="4.94245">
        <ele>234.7</ele>
        <time>2020-08-30T13:26:28Z</time>
      </trkpt>
      <trkpt lat="49.5927" lon="4.94245">
        <ele>234.7</ele>
        <time>2020-08-30T13:26:46Z</time>
      </trkpt>
      <trkpt lat="49.5927" lon="4.94245">
        <ele>234.22</ele>
        <time>2020-08-30T13:27:12Z</time>
      </trkpt>
      <trkpt lat="49.5927" lon="4.94244">
        <ele>234.22</ele>
        <time>2020-08-30T13:27:29Z</time>
      </trkpt>
      <trkpt lat="49.59277" lon="4.94225">
        <ele>235.66</ele>
        <time>2020-08-30T13:27:44Z</time>
      </trkpt>
      <trkpt lat="49.59289" lon="4.94204">
        <ele>237.1</ele>
        <time>2020-08-30T13:28:01Z</time>
      </trkpt>
      <trkpt lat="49.59309" lon="4.94199">
        <ele>239.51</ele>
        <time>2020-08-30T13:28:21Z</time>
      </trkpt>
      <trkpt lat="49.59331" lon="4.94194">
        <ele>243.35</ele>
        <time>2020-08-30T13:28:42Z</time>
      </trkpt>
      <trkpt lat="49.59351" lon="4.94196">
        <ele>246.72</ele>
        <time>2020-08-30T13:29:01Z</time>
      </trkpt>
      <trkpt lat="49.5937" lon="4.94204">
        <ele>249.12</ele>
        <time>2020-08-30T13:29:19Z</time>
      </trkpt>
      <trkpt lat="49.59392" lon="4.94213">
        <ele>251.04</ele>
        <time>2020-08-30T13:29:40Z</time>
      </trkpt>
      <trkpt lat="49.59396" lon="4.94214">
        <ele>251.04</ele>
        <time>2020-08-30T13:29:44Z</time>
      </trkpt>
      <trkpt lat="49.59412" lon="4.9423">
        <ele>252.96</ele>
        <time>2020-08-30T13:30:03Z</time>
      </trkpt>
      <trkpt lat="49.59414" lon="4.94233">
        <ele>253.44</ele>
        <time>2020-08-30T13:30:06Z</time>
      </trkpt>
      <trkpt lat="49.59419" lon="4.94268">
        <ele>256.33</ele>
        <time>2020-08-30T13:30:27Z</time>
      </trkpt>
      <trkpt lat="49.59421" lon="4.94298">
        <ele>258.25</ele>
        <time>2020-08-30T13:30:44Z</time>
      </trkpt>
      <trkpt lat="49.59422" lon="4.94306">
        <ele>258.25</ele>
        <time>2020-08-30T13:30:49Z</time>
      </trkpt>
      <trkpt lat="49.59425" lon="4.94342">
        <ele>258.25</ele>
        <time>2020-08-30T13:31:09Z</time>
      </trkpt>
      <trkpt lat="49.59428" lon="4.94374">
        <ele>257.29</ele>
        <time>2020-08-30T13:31:29Z</time>
      </trkpt>
      <trkpt lat="49.59431" lon="4.94405">
        <ele>255.85</ele>
        <time>2020-08-30T13:31:47Z</time>
      </trkpt>
      <trkpt lat="49.5944" lon="4.94428">
        <ele>256.81</ele>
        <time>2020-08-30T13:32:05Z</time>
      </trkpt>
      <trkpt lat="49.59441" lon="4.94429">
        <ele>257.29</ele>
        <time>2020-08-30T13:32:07Z</time>
      </trkpt>
      <trkpt lat="49.59464" lon="4.9443">
        <ele>262.1</ele>
        <time>2020-08-30T13:32:29Z</time>
      </trkpt>
      <trkpt lat="49.59486" lon="4.94432">
        <ele>265.94</ele>
        <time>2020-08-30T13:32:49Z</time>
      </trkpt>
      <trkpt lat="49.59499" lon="4.94433">
        <ele>267.86</ele>
        <time>2020-08-30T13:33:02Z</time>
      </trkpt>
      <trkpt lat="49.59522" lon="4.94435">
        <ele>271.71</ele>
        <time>2020-08-30T13:33:23Z</time>
      </trkpt>
      <trkpt lat="49.59541" lon="4.94437">
        <ele>273.15</ele>
        <time>2020-08-30T13:33:40Z</time>
      </trkpt>
      <trkpt lat="49.5956" lon="4.94438">
        <ele>276.04</ele>
        <time>2020-08-30T13:33:59Z</time>
      </trkpt>
      <trkpt lat="49.5958" lon="4.94439">
        <ele>278.92</ele>
        <time>2020-08-30T13:34:17Z</time>
      </trkpt>
      <trkpt lat="49.59598" lon="4.94441">
        <ele>280.84</ele>
        <time>2020-08-30T13:34:34Z</time>
      </trkpt>
      <trkpt lat="49.5962" lon="4.94448">
        <ele>281.8</ele>
        <time>2020-08-30T13:34:55Z</time>
      </trkpt>
      <trkpt lat="49.59621" lon="4.94448">
        <ele>281.8</ele>
        <time>2020-08-30T13:34:56Z</time>
      </trkpt>
      <trkpt lat="49.59642" lon="4.9445">
        <ele>282.77</ele>
        <time>2020-08-30T13:35:15Z</time>
      </trkpt>
      <trkpt lat="49.59664" lon="4.94453">
        <ele>282.77</ele>
        <time>2020-08-30T13:35:35Z</time>
      </trkpt>
      <trkpt lat="49.59683" lon="4.94454">
        <ele>283.73</ele>
        <time>2020-08-30T13:35:52Z</time>
      </trkpt>
      <trkpt lat="49.59702" lon="4.94455">
        <ele>284.21</ele>
        <time>2020-08-30T13:36:09Z</time>
      </trkpt>
      <trkpt lat="49.59721" lon="4.94457">
        <ele>284.69</ele>
        <time>2020-08-30T13:36:26Z</time>
      </trkpt>
      <trkpt lat="49.59746" lon="4.94459">
        <ele>286.13</ele>
        <time>2020-08-30T13:36:48Z</time>
      </trkpt>
      <trkpt lat="49.59766" lon="4.9446">
        <ele>288.53</ele>
        <time>2020-08-30T13:37:06Z</time>
      </trkpt>
      <trkpt lat="49.59791" lon="4.94463">
        <ele>289.01</ele>
        <time>2020-08-30T13:37:28Z</time>
      </trkpt>
      <trkpt lat="49.59813" lon="4.94466">
        <ele>289.97</ele>
        <time>2020-08-30T13:37:48Z</time>
      </trkpt>
      <trkpt lat="49.59835" lon="4.94467">
        <ele>292.86</ele>
        <time>2020-08-30T13:38:08Z</time>
      </trkpt>
      <trkpt lat="49.59854" lon="4.94469">
        <ele>294.3</ele>
        <time>2020-08-30T13:38:25Z</time>
      </trkpt>
      <trkpt lat="49.59875" lon="4.94471">
        <ele>295.74</ele>
        <time>2020-08-30T13:38:44Z</time>
      </trkpt>
      <trkpt lat="49.59889" lon="4.94471">
        <ele>297.18</ele>
        <time>2020-08-30T13:38:59Z</time>
      </trkpt>
      <trkpt lat="49.59892" lon="4.9447">
        <ele>297.18</ele>
        <time>2020-08-30T13:39:12Z</time>
      </trkpt>
      <trkpt lat="49.59914" lon="4.94471">
        <ele>298.63</ele>
        <time>2020-08-30T13:39:31Z</time>
      </trkpt>
      <trkpt lat="49.59938" lon="4.94473">
        <ele>299.59</ele>
        <time>2020-08-30T13:39:51Z</time>
      </trkpt>
      <trkpt lat="49.59961" lon="4.94476">
        <ele>298.15</ele>
        <time>2020-08-30T13:40:11Z</time>
      </trkpt>
      <trkpt lat="49.5998" lon="4.94479">
        <ele>298.15</ele>
        <time>2020-08-30T13:40:30Z</time>
      </trkpt>
      <trkpt lat="49.59997" lon="4.94481">
        <ele>297.18</ele>
        <time>2020-08-30T13:40:47Z</time>
      </trkpt>
      <trkpt lat="49.60015" lon="4.94486">
        <ele>294.78</ele>
        <time>2020-08-30T13:41:04Z</time>
      </trkpt>
      <trkpt lat="49.60019" lon="4.94486">
        <ele>294.3</ele>
        <time>2020-08-30T13:41:08Z</time>
      </trkpt>
      <trkpt lat="49.6004" lon="4.94486">
        <ele>289.97</ele>
        <time>2020-08-30T13:41:27Z</time>
      </trkpt>
      <trkpt lat="49.60059" lon="4.9449">
        <ele>286.61</ele>
        <time>2020-08-30T13:41:45Z</time>
      </trkpt>
      <trkpt lat="49.60078" lon="4.94493">
        <ele>285.17</ele>
        <time>2020-08-30T13:42:03Z</time>
      </trkpt>
      <trkpt lat="49.60098" lon="4.94498">
        <ele>282.28</ele>
        <time>2020-08-30T13:42:22Z</time>
      </trkpt>
      <trkpt lat="49.60115" lon="4.945">
        <ele>279.88</ele>
        <time>2020-08-30T13:42:39Z</time>
      </trkpt>
      <trkpt lat="49.60136" lon="4.94506">
        <ele>278.44</ele>
        <time>2020-08-30T13:42:58Z</time>
      </trkpt>
      <trkpt lat="49.60151" lon="4.94513">
        <ele>276.52</ele>
        <time>2020-08-30T13:43:13Z</time>
      </trkpt>
      <trkpt lat="49.6017" lon="4.94523">
        <ele>275.56</ele>
        <time>2020-08-30T13:43:32Z</time>
      </trkpt>
      <trkpt lat="49.60187" lon="4.94543">
        <ele>275.07</ele>
        <time>2020-08-30T13:43:52Z</time>
      </trkpt>
      <trkpt lat="49.60204" lon="4.94541">
        <ele>271.71</ele>
        <time>2020-08-30T13:44:09Z</time>
      </trkpt>
      <trkpt lat="49.60223" lon="4.94526">
        <ele>270.27</ele>
        <time>2020-08-30T13:44:31Z</time>
      </trkpt>
      <trkpt lat="49.60243" lon="4.9451">
        <ele>270.75</ele>
        <time>2020-08-30T13:44:50Z</time>
      </trkpt>
      <trkpt lat="49.60264" lon="4.94496">
        <ele>272.67</ele>
        <time>2020-08-30T13:45:08Z</time>
      </trkpt>
      <trkpt lat="49.60284" lon="4.94485">
        <ele>276.52</ele>
        <time>2020-08-30T13:45:28Z</time>
      </trkpt>
      <trkpt lat="49.60307" lon="4.94475">
        <ele>279.4</ele>
        <time>2020-08-30T13:45:49Z</time>
      </trkpt>
      <trkpt lat="49.60328" lon="4.94466">
        <ele>282.28</ele>
        <time>2020-08-30T13:46:09Z</time>
      </trkpt>
      <trkpt lat="49.60353" lon="4.94455">
        <ele>284.21</ele>
        <time>2020-08-30T13:46:32Z</time>
      </trkpt>
      <trkpt lat="49.60375" lon="4.94441">
        <ele>284.69</ele>
        <time>2020-08-30T13:46:54Z</time>
      </trkpt>
      <trkpt lat="49.60395" lon="4.94419">
        <ele>285.65</ele>
        <time>2020-08-30T13:47:15Z</time>
      </trkpt>
      <trkpt lat="49.60412" lon="4.94391">
        <ele>288.53</ele>
        <time>2020-08-30T13:47:38Z</time>
      </trkpt>
      <trkpt lat="49.60427" lon="4.94362">
        <ele>290.46</ele>
        <time>2020-08-30T13:48:00Z</time>
      </trkpt>
      <trkpt lat="49.60439" lon="4.9434">
        <ele>290.94</ele>
        <time>2020-08-30T13:48:17Z</time>
      </trkpt>
      <trkpt lat="49.60454" lon="4.94314">
        <ele>290.94</ele>
        <time>2020-08-30T13:48:37Z</time>
      </trkpt>
      <trkpt lat="49.60466" lon="4.94292">
        <ele>291.42</ele>
        <time>2020-08-30T13:48:54Z</time>
      </trkpt>
      <trkpt lat="49.60479" lon="4.94272">
        <ele>291.9</ele>
        <time>2020-08-30T13:49:12Z</time>
      </trkpt>
      <trkpt lat="49.60491" lon="4.94248">
        <ele>292.38</ele>
        <time>2020-08-30T13:49:30Z</time>
      </trkpt>
      <trkpt lat="49.60506" lon="4.94219">
        <ele>293.34</ele>
        <time>2020-08-30T13:49:51Z</time>
      </trkpt>
      <trkpt lat="49.60518" lon="4.94195">
        <ele>293.82</ele>
        <time>2020-08-30T13:50:09Z</time>
      </trkpt>
      <trkpt lat="49.6053" lon="4.94164">
        <ele>294.78</ele>
        <time>2020-08-30T13:50:30Z</time>
      </trkpt>
      <trkpt lat="49.6054" lon="4.94137">
        <ele>296.7</ele>
        <time>2020-08-30T13:50:48Z</time>
      </trkpt>
      <trkpt lat="49.60551" lon="4.94108">
        <ele>298.15</ele>
        <time>2020-08-30T13:51:08Z</time>
      </trkpt>
      <trkpt lat="49.60563" lon="4.94077">
        <ele>301.03</ele>
        <time>2020-08-30T13:51:29Z</time>
      </trkpt>
      <trkpt lat="49.60575" lon="4.94048">
        <ele>303.91</ele>
        <time>2020-08-30T13:51:49Z</time>
      </trkpt>
      <trkpt lat="49.60587" lon="4.94019">
        <ele>305.36</ele>
        <time>2020-08-30T13:52:10Z</time>
      </trkpt>
      <trkpt lat="49.60598" lon="4.93991">
        <ele>305.36</ele>
        <time>2020-08-30T13:52:29Z</time>
      </trkpt>
      <trkpt lat="49.60607" lon="4.9396">
        <ele>306.8</ele>
        <time>2020-08-30T13:52:49Z</time>
      </trkpt>
      <trkpt lat="49.60613" lon="4.93931">
        <ele>306.8</ele>
        <time>2020-08-30T13:53:07Z</time>
      </trkpt>
      <trkpt lat="49.60622" lon="4.93897">
        <ele>306.8</ele>
        <time>2020-08-30T13:53:28Z</time>
      </trkpt>
      <trkpt lat="49.60629" lon="4.93859">
        <ele>308.24</ele>
        <time>2020-08-30T13:53:51Z</time>
      </trkpt>
      <trkpt lat="49.60635" lon="4.9383">
        <ele>308.24</ele>
        <time>2020-08-30T13:54:09Z</time>
      </trkpt>
      <trkpt lat="49.60641" lon="4.93793">
        <ele>306.8</ele>
        <time>2020-08-30T13:54:31Z</time>
      </trkpt>
      <trkpt lat="49.60643" lon="4.93764">
        <ele>304.88</ele>
        <time>2020-08-30T13:54:48Z</time>
      </trkpt>
      <trkpt lat="49.60646" lon="4.93731">
        <ele>303.91</ele>
        <time>2020-08-30T13:55:09Z</time>
      </trkpt>
      <trkpt lat="49.60648" lon="4.93696">
        <ele>300.07</ele>
        <time>2020-08-30T13:55:30Z</time>
      </trkpt>
      <trkpt lat="49.60651" lon="4.93663">
        <ele>296.22</ele>
        <time>2020-08-30T13:55:49Z</time>
      </trkpt>
      <trkpt lat="49.60653" lon="4.93632">
        <ele>294.78</ele>
        <time>2020-08-30T13:56:08Z</time>
      </trkpt>
      <trkpt lat="49.60658" lon="4.93603">
        <ele>294.78</ele>
        <time>2020-08-30T13:56:26Z</time>
      </trkpt>
      <trkpt lat="49.60673" lon="4.93573">
        <ele>296.7</ele>
        <time>2020-08-30T13:56:47Z</time>
      </trkpt>
      <trkpt lat="49.60687" lon="4.93542">
        <ele>297.67</ele>
        <time>2020-08-30T13:57:08Z</time>
      </trkpt>
      <trkpt lat="49.60701" lon="4.93511">
        <ele>298.63</ele>
        <time>2020-08-30T13:57:30Z</time>
      </trkpt>
      <trkpt lat="49.60712" lon="4.93481">
        <ele>298.15</ele>
        <time>2020-08-30T13:57:50Z</time>
      </trkpt>
      <trkpt lat="49.60723" lon="4.93447">
        <ele>295.74</ele>
        <time>2020-08-30T13:58:12Z</time>
      </trkpt>
      <trkpt lat="49.60734" lon="4.93416">
        <ele>294.3</ele>
        <time>2020-08-30T13:58:33Z</time>
      </trkpt>
      <trkpt lat="49.6074" lon="4.9339">
        <ele>290.94</ele>
        <time>2020-08-30T13:58:52Z</time>
      </trkpt>
      <trkpt lat="49.60751" lon="4.93382">
        <ele>289.97</ele>
        <time>2020-08-30T13:59:07Z</time>
      </trkpt>
      <trkpt lat="49.6077" lon="4.93385">
        <ele>287.57</ele>
        <time>2020-08-30T13:59:26Z</time>
      </trkpt>
      <trkpt lat="49.6079" lon="4.93387">
        <ele>287.57</ele>
        <time>2020-08-30T13:59:45Z</time>
      </trkpt>
      <trkpt lat="49.60805" lon="4.93393">
        <ele>285.65</ele>
        <time>2020-08-30T14:00:01Z</time>
      </trkpt>
      <trkpt lat="49.60819" lon="4.93395">
        <ele>284.69</ele>
        <time>2020-08-30T14:00:16Z</time>
      </trkpt>
      <trkpt lat="49.60837" lon="4.93402">
        <ele>282.77</ele>
        <time>2020-08-30T14:00:32Z</time>
      </trkpt>
      <trkpt lat="49.60855" lon="4.93403">
        <ele>285.17</ele>
        <time>2020-08-30T14:00:48Z</time>
      </trkpt>
      <trkpt lat="49.60875" lon="4.93399">
        <ele>285.65</ele>
        <time>2020-08-30T14:01:07Z</time>
      </trkpt>
      <trkpt lat="49.60894" lon="4.93392">
        <ele>286.61</ele>
        <time>2020-08-30T14:01:26Z</time>
      </trkpt>
      <trkpt lat="49.60913" lon="4.93382">
        <ele>286.13</ele>
        <time>2020-08-30T14:01:43Z</time>
      </trkpt>
      <trkpt lat="49.60932" lon="4.93363">
        <ele>289.01</ele>
        <time>2020-08-30T14:02:01Z</time>
      </trkpt>
      <trkpt lat="49.60948" lon="4.93349">
        <ele>291.9</ele>
        <time>2020-08-30T14:02:16Z</time>
      </trkpt>
      <trkpt lat="49.60964" lon="4.93337">
        <ele>292.38</ele>
        <time>2020-08-30T14:02:34Z</time>
      </trkpt>
      <trkpt lat="49.6098" lon="4.93328">
        <ele>291.9</ele>
        <time>2020-08-30T14:02:52Z</time>
      </trkpt>
      <trkpt lat="49.60998" lon="4.9333">
        <ele>292.86</ele>
        <time>2020-08-30T14:03:09Z</time>
      </trkpt>
      <trkpt lat="49.6101" lon="4.93333">
        <ele>293.34</ele>
        <time>2020-08-30T14:03:27Z</time>
      </trkpt>
      <trkpt lat="49.61028" lon="4.93344">
        <ele>293.82</ele>
        <time>2020-08-30T14:03:46Z</time>
      </trkpt>
      <trkpt lat="49.61055" lon="4.93363">
        <ele>291.42</ele>
        <time>2020-08-30T14:04:06Z</time>
      </trkpt>
      <trkpt lat="49.6107" lon="4.93368">
        <ele>290.94</ele>
        <time>2020-08-30T14:04:24Z</time>
      </trkpt>
      <trkpt lat="49.61098" lon="4.93369">
        <ele>283.73</ele>
        <time>2020-08-30T14:04:46Z</time>
      </trkpt>
      <trkpt lat="49.61107" lon="4.93366">
        <ele>286.61</ele>
        <time>2020-08-30T14:05:01Z</time>
      </trkpt>
      <trkpt lat="49.61117" lon="4.93349">
        <ele>286.13</ele>
        <time>2020-08-30T14:05:16Z</time>
      </trkpt>
      <trkpt lat="49.61116" lon="4.93332">
        <ele>284.21</ele>
        <time>2020-08-30T14:05:31Z</time>
      </trkpt>
      <trkpt lat="49.6111" lon="4.93304">
        <ele>280.84</ele>
        <time>2020-08-30T14:05:47Z</time>
      </trkpt>
      <trkpt lat="49.61102" lon="4.93273">
        <ele>278.92</ele>
        <time>2020-08-30T14:06:05Z</time>
      </trkpt>
      <trkpt lat="49.61099" lon="4.93264">
        <ele>278.92</ele>
        <time>2020-08-30T14:06:24Z</time>
      </trkpt>
      <trkpt lat="49.611" lon="4.93258">
        <ele>279.88</ele>
        <time>2020-08-30T14:06:40Z</time>
      </trkpt>
      <trkpt lat="49.61101" lon="4.93236">
        <ele>280.36</ele>
        <time>2020-08-30T14:06:59Z</time>
      </trkpt>
      <trkpt lat="49.61103" lon="4.93222">
        <ele>278.92</ele>
        <time>2020-08-30T14:07:13Z</time>
      </trkpt>
      <trkpt lat="49.61102" lon="4.93212">
        <ele>278.92</ele>
        <time>2020-08-30T14:07:28Z</time>
      </trkpt>
      <trkpt lat="49.61103" lon="4.932">
        <ele>277.96</ele>
        <time>2020-08-30T14:07:44Z</time>
      </trkpt>
      <trkpt lat="49.61102" lon="4.93183">
        <ele>274.11</ele>
        <time>2020-08-30T14:07:58Z</time>
      </trkpt>
      <trkpt lat="49.61102" lon="4.93168">
        <ele>271.23</ele>
        <time>2020-08-30T14:08:17Z</time>
      </trkpt>
      <trkpt lat="49.61102" lon="4.93158">
        <ele>269.79</ele>
        <time>2020-08-30T14:08:37Z</time>
      </trkpt>
      <trkpt lat="49.61103" lon="4.93147">
        <ele>269.79</ele>
        <time>2020-08-30T14:08:56Z</time>
      </trkpt>
      <trkpt lat="49.61105" lon="4.93138">
        <ele>269.79</ele>
        <time>2020-08-30T14:09:10Z</time>
      </trkpt>
      <trkpt lat="49.61111" lon="4.93107">
        <ele>267.86</ele>
        <time>2020-08-30T14:09:28Z</time>
      </trkpt>
      <trkpt lat="49.61114" lon="4.93082">
        <ele>263.54</ele>
        <time>2020-08-30T14:09:41Z</time>
      </trkpt>
      <trkpt lat="49.61117" lon="4.93059">
        <ele>257.77</ele>
        <time>2020-08-30T14:09:56Z</time>
      </trkpt>
      <trkpt lat="49.61118" lon="4.9305">
        <ele>254.41</ele>
        <time>2020-08-30T14:10:11Z</time>
      </trkpt>
      <trkpt lat="49.6112" lon="4.93041">
        <ele>253.44</ele>
        <time>2020-08-30T14:10:26Z</time>
      </trkpt>
      <trkpt lat="49.61123" lon="4.93024">
        <ele>247.68</ele>
        <time>2020-08-30T14:10:42Z</time>
      </trkpt>
      <trkpt lat="49.61127" lon="4.93002">
        <ele>246.23</ele>
        <time>2020-08-30T14:11:00Z</time>
      </trkpt>
      <trkpt lat="49.6113" lon="4.92982">
        <ele>243.83</ele>
        <time>2020-08-30T14:11:14Z</time>
      </trkpt>
      <trkpt lat="49.61133" lon="4.92961">
        <ele>240.95</ele>
        <time>2020-08-30T14:11:28Z</time>
      </trkpt>
      <trkpt lat="49.61138" lon="4.92937">
        <ele>236.62</ele>
        <time>2020-08-30T14:11:43Z</time>
      </trkpt>
      <trkpt lat="49.61148" lon="4.92917">
        <ele>228.45</ele>
        <time>2020-08-30T14:12:01Z</time>
      </trkpt>
      <trkpt lat="49.61157" lon="4.92895">
        <ele>223.64</ele>
        <time>2020-08-30T14:12:19Z</time>
      </trkpt>
      <trkpt lat="49.61167" lon="4.92874">
        <ele>222.68</ele>
        <time>2020-08-30T14:12:37Z</time>
      </trkpt>
      <trkpt lat="49.61172" lon="4.92858">
        <ele>222.2</ele>
        <time>2020-08-30T14:12:51Z</time>
      </trkpt>
      <trkpt lat="49.61173" lon="4.92853">
        <ele>222.2</ele>
        <time>2020-08-30T14:12:54Z</time>
      </trkpt>
      <trkpt lat="49.61174" lon="4.92843">
        <ele>221.72</ele>
        <time>2020-08-30T14:13:00Z</time>
      </trkpt>
      <trkpt lat="49.61185" lon="4.92813">
        <ele>222.2</ele>
        <time>2020-08-30T14:13:20Z</time>
      </trkpt>
      <trkpt lat="49.61192" lon="4.9279">
        <ele>222.2</ele>
        <time>2020-08-30T14:13:36Z</time>
      </trkpt>
      <trkpt lat="49.61197" lon="4.92767">
        <ele>221.72</ele>
        <time>2020-08-30T14:13:51Z</time>
      </trkpt>
      <trkpt lat="49.61203" lon="4.92746">
        <ele>223.64</ele>
        <time>2020-08-30T14:14:07Z</time>
      </trkpt>
      <trkpt lat="49.61211" lon="4.92723">
        <ele>228.93</ele>
        <time>2020-08-30T14:14:25Z</time>
      </trkpt>
      <trkpt lat="49.61216" lon="4.927">
        <ele>231.33</ele>
        <time>2020-08-30T14:14:42Z</time>
      </trkpt>
      <trkpt lat="49.61215" lon="4.92692">
        <ele>231.81</ele>
        <time>2020-08-30T14:14:47Z</time>
      </trkpt>
      <trkpt lat="49.61214" lon="4.92679">
        <ele>229.41</ele>
        <time>2020-08-30T14:15:04Z</time>
      </trkpt>
      <trkpt lat="49.61221" lon="4.92685">
        <ele>228.93</ele>
        <time>2020-08-30T14:15:19Z</time>
      </trkpt>
      <trkpt lat="49.61231" lon="4.92714">
        <ele>225.57</ele>
        <time>2020-08-30T14:15:36Z</time>
      </trkpt>
      <trkpt lat="49.61244" lon="4.92736">
        <ele>223.16</ele>
        <time>2020-08-30T14:15:54Z</time>
      </trkpt>
      <trkpt lat="49.61246" lon="4.92742">
        <ele>222.68</ele>
        <time>2020-08-30T14:15:59Z</time>
      </trkpt>
      <trkpt lat="49.61261" lon="4.9277">
        <ele>220.76</ele>
        <time>2020-08-30T14:16:20Z</time>
      </trkpt>
      <trkpt lat="49.61274" lon="4.9279">
        <ele>216.91</ele>
        <time>2020-08-30T14:16:38Z</time>
      </trkpt>
      <trkpt lat="49.61286" lon="4.92807">
        <ele>215.95</ele>
        <time>2020-08-30T14:16:54Z</time>
      </trkpt>
      <trkpt lat="49.61301" lon="4.92825">
        <ele>214.99</ele>
        <time>2020-08-30T14:17:11Z</time>
      </trkpt>
      <trkpt lat="49.61314" lon="4.92844">
        <ele>215.95</ele>
        <time>2020-08-30T14:17:27Z</time>
      </trkpt>
      <trkpt lat="49.61328" lon="4.92865">
        <ele>219.32</ele>
        <time>2020-08-30T14:17:41Z</time>
      </trkpt>
      <trkpt lat="49.61344" lon="4.92882">
        <ele>220.28</ele>
        <time>2020-08-30T14:17:57Z</time>
      </trkpt>
      <trkpt lat="49.61357" lon="4.92894">
        <ele>220.76</ele>
        <time>2020-08-30T14:18:13Z</time>
      </trkpt>
      <trkpt lat="49.61374" lon="4.929">
        <ele>217.4</ele>
        <time>2020-08-30T14:18:29Z</time>
      </trkpt>
      <trkpt lat="49.61388" lon="4.92915">
        <ele>218.36</ele>
        <time>2020-08-30T14:18:44Z</time>
      </trkpt>
      <trkpt lat="49.61403" lon="4.92929">
        <ele>216.91</ele>
        <time>2020-08-30T14:19:00Z</time>
      </trkpt>
      <trkpt lat="49.61412" lon="4.92939">
        <ele>217.88</ele>
        <time>2020-08-30T14:19:09Z</time>
      </trkpt>
      <trkpt lat="49.61414" lon="4.92942">
        <ele>217.4</ele>
        <time>2020-08-30T14:19:12Z</time>
      </trkpt>
      <trkpt lat="49.61429" lon="4.92958">
        <ele>217.4</ele>
        <time>2020-08-30T14:19:27Z</time>
      </trkpt>
      <trkpt lat="49.61446" lon="4.92985">
        <ele>220.76</ele>
        <time>2020-08-30T14:19:46Z</time>
      </trkpt>
      <trkpt lat="49.61451" lon="4.92992">
        <ele>221.72</ele>
        <time>2020-08-30T14:19:51Z</time>
      </trkpt>
      <trkpt lat="49.61471" lon="4.93007">
        <ele>223.64</ele>
        <time>2020-08-30T14:20:10Z</time>
      </trkpt>
      <trkpt lat="49.6149" lon="4.93022">
        <ele>225.57</ele>
        <time>2020-08-30T14:20:29Z</time>
      </trkpt>
      <trkpt lat="49.61511" lon="4.93039">
        <ele>224.12</ele>
        <time>2020-08-30T14:20:49Z</time>
      </trkpt>
      <trkpt lat="49.61528" lon="4.93049">
        <ele>225.09</ele>
        <time>2020-08-30T14:21:05Z</time>
      </trkpt>
      <trkpt lat="49.61548" lon="4.93058">
        <ele>223.16</ele>
        <time>2020-08-30T14:21:22Z</time>
      </trkpt>
      <trkpt lat="49.61564" lon="4.93061">
        <ele>223.64</ele>
        <time>2020-08-30T14:21:36Z</time>
      </trkpt>
      <trkpt lat="49.61583" lon="4.93062">
        <ele>223.16</ele>
        <time>2020-08-30T14:21:55Z</time>
      </trkpt>
      <trkpt lat="49.61589" lon="4.93064">
        <ele>223.16</ele>
        <time>2020-08-30T14:22:01Z</time>
      </trkpt>
      <trkpt lat="49.61611" lon="4.93069">
        <ele>222.2</ele>
        <time>2020-08-30T14:22:22Z</time>
      </trkpt>
      <trkpt lat="49.61631" lon="4.93074">
        <ele>222.2</ele>
        <time>2020-08-30T14:22:41Z</time>
      </trkpt>
      <trkpt lat="49.61633" lon="4.93075">
        <ele>222.2</ele>
        <time>2020-08-30T14:22:43Z</time>
      </trkpt>
      <trkpt lat="49.61638" lon="4.9308">
        <ele>222.68</ele>
        <time>2020-08-30T14:22:48Z</time>
      </trkpt>
      <trkpt lat="49.61657" lon="4.93088">
        <ele>223.16</ele>
        <time>2020-08-30T14:23:06Z</time>
      </trkpt>
      <trkpt lat="49.61673" lon="4.93098">
        <ele>223.16</ele>
        <time>2020-08-30T14:23:22Z</time>
      </trkpt>
      <trkpt lat="49.61684" lon="4.93109">
        <ele>221.72</ele>
        <time>2020-08-30T14:23:34Z</time>
      </trkpt>
      <trkpt lat="49.6169" lon="4.93118">
        <ele>221.72</ele>
        <time>2020-08-30T14:23:42Z</time>
      </trkpt>
      <trkpt lat="49.61705" lon="4.93146">
        <ele>223.16</ele>
        <time>2020-08-30T14:24:03Z</time>
      </trkpt>
      <trkpt lat="49.61718" lon="4.93172">
        <ele>225.09</ele>
        <time>2020-08-30T14:24:22Z</time>
      </trkpt>
      <trkpt lat="49.61733" lon="4.93204">
        <ele>222.68</ele>
        <time>2020-08-30T14:24:45Z</time>
      </trkpt>
      <trkpt lat="49.61746" lon="4.93235">
        <ele>221.72</ele>
        <time>2020-08-30T14:25:06Z</time>
      </trkpt>
      <trkpt lat="49.61755" lon="4.93262">
        <ele>220.28</ele>
        <time>2020-08-30T14:25:24Z</time>
      </trkpt>
      <trkpt lat="49.61766" lon="4.93293">
        <ele>220.76</ele>
        <time>2020-08-30T14:25:44Z</time>
      </trkpt>
      <trkpt lat="49.61775" lon="4.93324">
        <ele>220.28</ele>
        <time>2020-08-30T14:26:04Z</time>
      </trkpt>
      <trkpt lat="49.61776" lon="4.93331">
        <ele>219.8</ele>
        <time>2020-08-30T14:26:20Z</time>
      </trkpt>
      <trkpt lat="49.61784" lon="4.93356">
        <ele>220.28</ele>
        <time>2020-08-30T14:26:36Z</time>
      </trkpt>
      <trkpt lat="49.61791" lon="4.93389">
        <ele>220.76</ele>
        <time>2020-08-30T14:26:55Z</time>
      </trkpt>
      <trkpt lat="49.61797" lon="4.93422">
        <ele>221.24</ele>
        <time>2020-08-30T14:27:14Z</time>
      </trkpt>
      <trkpt lat="49.61803" lon="4.93449">
        <ele>219.32</ele>
        <time>2020-08-30T14:27:32Z</time>
      </trkpt>
      <trkpt lat="49.61805" lon="4.93485">
        <ele>213.55</ele>
        <time>2020-08-30T14:27:53Z</time>
      </trkpt>
      <trkpt lat="49.61809" lon="4.93522">
        <ele>213.55</ele>
        <time>2020-08-30T14:28:14Z</time>
      </trkpt>
      <trkpt lat="49.61813" lon="4.93553">
        <ele>213.07</ele>
        <time>2020-08-30T14:28:34Z</time>
      </trkpt>
      <trkpt lat="49.61815" lon="4.93575">
        <ele>212.59</ele>
        <time>2020-08-30T14:28:47Z</time>
      </trkpt>
      <trkpt lat="49.61816" lon="4.93578">
        <ele>213.07</ele>
        <time>2020-08-30T14:28:53Z</time>
      </trkpt>
      <trkpt lat="49.61822" lon="4.93609">
        <ele>214.03</ele>
        <time>2020-08-30T14:29:13Z</time>
      </trkpt>
      <trkpt lat="49.6183" lon="4.93639">
        <ele>214.51</ele>
        <time>2020-08-30T14:29:33Z</time>
      </trkpt>
      <trkpt lat="49.61837" lon="4.93674">
        <ele>213.55</ele>
        <time>2020-08-30T14:29:52Z</time>
      </trkpt>
      <trkpt lat="49.61844" lon="4.93707">
        <ele>212.59</ele>
        <time>2020-08-30T14:30:13Z</time>
      </trkpt>
      <trkpt lat="49.6185" lon="4.93739">
        <ele>212.59</ele>
        <time>2020-08-30T14:30:31Z</time>
      </trkpt>
      <trkpt lat="49.61854" lon="4.93765">
        <ele>211.15</ele>
        <time>2020-08-30T14:30:49Z</time>
      </trkpt>
      <trkpt lat="49.61857" lon="4.93801">
        <ele>208.26</ele>
        <time>2020-08-30T14:31:10Z</time>
      </trkpt>
      <trkpt lat="49.61854" lon="4.93827">
        <ele>206.82</ele>
        <time>2020-08-30T14:31:26Z</time>
      </trkpt>
      <trkpt lat="49.61844" lon="4.93857">
        <ele>204.42</ele>
        <time>2020-08-30T14:31:45Z</time>
      </trkpt>
      <trkpt lat="49.61839" lon="4.93876">
        <ele>201.53</ele>
        <time>2020-08-30T14:31:59Z</time>
      </trkpt>
      <trkpt lat="49.61836" lon="4.93906">
        <ele>197.21</ele>
        <time>2020-08-30T14:32:19Z</time>
      </trkpt>
      <trkpt lat="49.61835" lon="4.93936">
        <ele>195.28</ele>
        <time>2020-08-30T14:32:37Z</time>
      </trkpt>
      <trkpt lat="49.61835" lon="4.93969">
        <ele>195.28</ele>
        <time>2020-08-30T14:32:56Z</time>
      </trkpt>
      <trkpt lat="49.61835" lon="4.94001">
        <ele>197.21</ele>
        <time>2020-08-30T14:33:14Z</time>
      </trkpt>
      <trkpt lat="49.6184" lon="4.94029">
        <ele>200.09</ele>
        <time>2020-08-30T14:33:29Z</time>
      </trkpt>
      <trkpt lat="49.6185" lon="4.9406">
        <ele>201.53</ele>
        <time>2020-08-30T14:33:49Z</time>
      </trkpt>
      <trkpt lat="49.6186" lon="4.9409">
        <ele>201.53</ele>
        <time>2020-08-30T14:34:09Z</time>
      </trkpt>
      <trkpt lat="49.61871" lon="4.94124">
        <ele>202.98</ele>
        <time>2020-08-30T14:34:31Z</time>
      </trkpt>
      <trkpt lat="49.61879" lon="4.94145">
        <ele>203.46</ele>
        <time>2020-08-30T14:34:47Z</time>
      </trkpt>
      <trkpt lat="49.61886" lon="4.94166">
        <ele>201.05</ele>
        <time>2020-08-30T14:35:04Z</time>
      </trkpt>
      <trkpt lat="49.61891" lon="4.94194">
        <ele>202.01</ele>
        <time>2020-08-30T14:35:20Z</time>
      </trkpt>
      <trkpt lat="49.619" lon="4.94226">
        <ele>202.01</ele>
        <time>2020-08-30T14:35:39Z</time>
      </trkpt>
      <trkpt lat="49.61909" lon="4.94263">
        <ele>203.94</ele>
        <time>2020-08-30T14:36:01Z</time>
      </trkpt>
      <trkpt lat="49.6192" lon="4.94307">
        <ele>208.26</ele>
        <time>2020-08-30T14:36:24Z</time>
      </trkpt>
      <trkpt lat="49.6193" lon="4.94336">
        <ele>208.74</ele>
        <time>2020-08-30T14:36:44Z</time>
      </trkpt>
      <trkpt lat="49.61941" lon="4.94363">
        <ele>209.7</ele>
        <time>2020-08-30T14:37:02Z</time>
      </trkpt>
      <trkpt lat="49.61951" lon="4.94387">
        <ele>208.26</ele>
        <time>2020-08-30T14:37:18Z</time>
      </trkpt>
      <trkpt lat="49.6196" lon="4.9441">
        <ele>207.78</ele>
        <time>2020-08-30T14:37:34Z</time>
      </trkpt>
      <trkpt lat="49.61973" lon="4.94438">
        <ele>205.86</ele>
        <time>2020-08-30T14:37:54Z</time>
      </trkpt>
      <trkpt lat="49.61985" lon="4.94461">
        <ele>204.42</ele>
        <time>2020-08-30T14:38:12Z</time>
      </trkpt>
      <trkpt lat="49.61994" lon="4.94486">
        <ele>202.49</ele>
        <time>2020-08-30T14:38:30Z</time>
      </trkpt>
      <trkpt lat="49.62003" lon="4.94517">
        <ele>201.53</ele>
        <time>2020-08-30T14:38:49Z</time>
      </trkpt>
      <trkpt lat="49.62011" lon="4.94545">
        <ele>201.05</ele>
        <time>2020-08-30T14:39:09Z</time>
      </trkpt>
      <trkpt lat="49.62021" lon="4.94571">
        <ele>199.13</ele>
        <time>2020-08-30T14:39:28Z</time>
      </trkpt>
      <trkpt lat="49.62028" lon="4.94595">
        <ele>198.65</ele>
        <time>2020-08-30T14:39:45Z</time>
      </trkpt>
      <trkpt lat="49.62038" lon="4.9462">
        <ele>198.65</ele>
        <time>2020-08-30T14:40:03Z</time>
      </trkpt>
      <trkpt lat="49.6205" lon="4.94652">
        <ele>199.61</ele>
        <time>2020-08-30T14:40:24Z</time>
      </trkpt>
      <trkpt lat="49.62062" lon="4.94684">
        <ele>202.01</ele>
        <time>2020-08-30T14:40:43Z</time>
      </trkpt>
      <trkpt lat="49.62074" lon="4.94711">
        <ele>207.3</ele>
        <time>2020-08-30T14:41:02Z</time>
      </trkpt>
      <trkpt lat="49.62088" lon="4.94737">
        <ele>210.67</ele>
        <time>2020-08-30T14:41:21Z</time>
      </trkpt>
      <trkpt lat="49.62101" lon="4.94758">
        <ele>212.59</ele>
        <time>2020-08-30T14:41:38Z</time>
      </trkpt>
      <trkpt lat="49.62107" lon="4.94768">
        <ele>213.55</ele>
        <time>2020-08-30T14:41:50Z</time>
      </trkpt>
      <trkpt lat="49.62116" lon="4.94795">
        <ele>213.55</ele>
        <time>2020-08-30T14:42:08Z</time>
      </trkpt>
      <trkpt lat="49.62124" lon="4.94825">
        <ele>212.59</ele>
        <time>2020-08-30T14:42:28Z</time>
      </trkpt>
      <trkpt lat="49.62132" lon="4.94855">
        <ele>211.63</ele>
        <time>2020-08-30T14:42:48Z</time>
      </trkpt>
      <trkpt lat="49.62138" lon="4.94884">
        <ele>210.67</ele>
        <time>2020-08-30T14:43:06Z</time>
      </trkpt>
      <trkpt lat="49.62143" lon="4.94913">
        <ele>210.19</ele>
        <time>2020-08-30T14:43:24Z</time>
      </trkpt>
      <trkpt lat="49.62149" lon="4.94942">
        <ele>209.22</ele>
        <time>2020-08-30T14:43:43Z</time>
      </trkpt>
      <trkpt lat="49.62157" lon="4.94972">
        <ele>207.3</ele>
        <time>2020-08-30T14:44:03Z</time>
      </trkpt>
      <trkpt lat="49.62162" lon="4.94998">
        <ele>206.82</ele>
        <time>2020-08-30T14:44:20Z</time>
      </trkpt>
      <trkpt lat="49.62166" lon="4.95028">
        <ele>209.7</ele>
        <time>2020-08-30T14:44:39Z</time>
      </trkpt>
      <trkpt lat="49.6217" lon="4.95057">
        <ele>208.26</ele>
        <time>2020-08-30T14:44:57Z</time>
      </trkpt>
      <trkpt lat="49.62176" lon="4.95091">
        <ele>207.78</ele>
        <time>2020-08-30T14:45:19Z</time>
      </trkpt>
      <trkpt lat="49.62182" lon="4.95113">
        <ele>204.9</ele>
        <time>2020-08-30T14:45:36Z</time>
      </trkpt>
      <trkpt lat="49.62189" lon="4.95146">
        <ele>200.57</ele>
        <time>2020-08-30T14:45:59Z</time>
      </trkpt>
      <trkpt lat="49.62198" lon="4.9517">
        <ele>198.65</ele>
        <time>2020-08-30T14:46:18Z</time>
      </trkpt>
      <trkpt lat="49.62209" lon="4.95196">
        <ele>195.77</ele>
        <time>2020-08-30T14:46:41Z</time>
      </trkpt>
      <trkpt lat="49.6222" lon="4.95219">
        <ele>192.88</ele>
        <time>2020-08-30T14:46:59Z</time>
      </trkpt>
      <trkpt lat="49.62223" lon="4.95236">
        <ele>190.48</ele>
        <time>2020-08-30T14:47:14Z</time>
      </trkpt>
      <trkpt lat="49.62223" lon="4.95244">
        <ele>190.48</ele>
        <time>2020-08-30T14:47:30Z</time>
      </trkpt>
      <trkpt lat="49.62223" lon="4.95243">
        <ele>190.48</ele>
        <time>2020-08-30T14:47:48Z</time>
      </trkpt>
      <trkpt lat="49.62223" lon="4.95242">
        <ele>190.48</ele>
        <time>2020-08-30T14:48:12Z</time>
      </trkpt>
      <trkpt lat="49.62223" lon="4.95243">
        <ele>190.96</ele>
        <time>2020-08-30T14:48:35Z</time>
      </trkpt>
      <trkpt lat="49.62226" lon="4.95243">
        <ele>189.04</ele>
        <time>2020-08-30T14:49:15Z</time>
      </trkpt>
      <trkpt lat="49.62225" lon="4.95245">
        <ele>189.52</ele>
        <time>2020-08-30T14:49:47Z</time>
      </trkpt>
      <trkpt lat="49.62224" lon="4.95246">
        <ele>190</ele>
        <time>2020-08-30T14:50:21Z</time>
      </trkpt>
      <trkpt lat="49.62223" lon="4.95246">
        <ele>190.48</ele>
        <time>2020-08-30T14:50:52Z</time>
      </trkpt>
      <trkpt lat="49.62224" lon="4.95246">
        <ele>190.96</ele>
        <time>2020-08-30T14:51:26Z</time>
      </trkpt>
      <trkpt lat="49.62224" lon="4.95248">
        <ele>190.96</ele>
        <time>2020-08-30T14:51:57Z</time>
      </trkpt>
      <trkpt lat="49.62225" lon="4.95247">
        <ele>191.44</ele>
        <time>2020-08-30T14:52:30Z</time>
      </trkpt>
      <trkpt lat="49.62225" lon="4.95246">
        <ele>191.44</ele>
        <time>2020-08-30T14:53:09Z</time>
      </trkpt>
      <trkpt lat="49.62225" lon="4.95245">
        <ele>192.4</ele>
        <time>2020-08-30T14:53:32Z</time>
      </trkpt>
      <trkpt lat="49.62225" lon="4.95245">
        <ele>193.36</ele>
        <time>2020-08-30T14:53:55Z</time>
      </trkpt>
      <trkpt lat="49.62225" lon="4.95246">
        <ele>193.84</ele>
        <time>2020-08-30T14:54:24Z</time>
      </trkpt>
      <trkpt lat="49.62226" lon="4.95245">
        <ele>194.8</ele>
        <time>2020-08-30T14:54:46Z</time>
      </trkpt>
      <trkpt lat="49.62227" lon="4.95246">
        <ele>194.32</ele>
        <time>2020-08-30T14:55:19Z</time>
      </trkpt>
      <trkpt lat="49.62227" lon="4.95247">
        <ele>195.28</ele>
        <time>2020-08-30T14:55:52Z</time>
      </trkpt>
      <trkpt lat="49.62227" lon="4.95246">
        <ele>194.8</ele>
        <time>2020-08-30T14:56:23Z</time>
      </trkpt>
      <trkpt lat="49.62227" lon="4.95246">
        <ele>194.8</ele>
        <time>2020-08-30T14:57:04Z</time>
      </trkpt>
      <trkpt lat="49.62225" lon="4.95245">
        <ele>193.84</ele>
        <time>2020-08-30T14:57:21Z</time>
      </trkpt>
      <trkpt lat="49.62225" lon="4.95245">
        <ele>193.84</ele>
        <time>2020-08-30T14:57:53Z</time>
      </trkpt>
      <trkpt lat="49.62225" lon="4.95244">
        <ele>193.84</ele>
        <time>2020-08-30T14:58:22Z</time>
      </trkpt>
      <trkpt lat="49.62225" lon="4.95246">
        <ele>192.88</ele>
        <time>2020-08-30T14:58:44Z</time>
      </trkpt>
      <trkpt lat="49.62222" lon="4.95241">
        <ele>192.88</ele>
        <time>2020-08-30T14:59:05Z</time>
      </trkpt>
      <trkpt lat="49.62222" lon="4.95241">
        <ele>192.88</ele>
        <time>2020-08-30T14:59:31Z</time>
      </trkpt>
      <trkpt lat="49.62222" lon="4.95242">
        <ele>192.4</ele>
        <time>2020-08-30T14:59:53Z</time>
      </trkpt>
      <trkpt lat="49.62224" lon="4.95244">
        <ele>191.44</ele>
        <time>2020-08-30T15:00:28Z</time>
      </trkpt>
      <trkpt lat="49.62223" lon="4.95245">
        <ele>191.44</ele>
        <time>2020-08-30T15:00:50Z</time>
      </trkpt>
      <trkpt lat="49.62222" lon="4.95245">
        <ele>190.96</ele>
        <time>2020-08-30T15:01:08Z</time>
      </trkpt>
      <trkpt lat="49.62222" lon="4.95245">
        <ele>190.96</ele>
        <time>2020-08-30T15:01:26Z</time>
      </trkpt>
      <trkpt lat="49.62221" lon="4.95244">
        <ele>190</ele>
        <time>2020-08-30T15:01:48Z</time>
      </trkpt>
      <trkpt lat="49.62222" lon="4.95244">
        <ele>190.48</ele>
        <time>2020-08-30T15:02:04Z</time>
      </trkpt>
      <trkpt lat="49.62224" lon="4.95241">
        <ele>190.48</ele>
        <time>2020-08-30T15:02:19Z</time>
      </trkpt>
      <trkpt lat="49.62227" lon="4.95246">
        <ele>189.52</ele>
        <time>2020-08-30T15:02:35Z</time>
      </trkpt>
      <trkpt lat="49.62243" lon="4.95284">
        <ele>184.23</ele>
        <time>2020-08-30T15:02:58Z</time>
      </trkpt>
      <trkpt lat="49.62251" lon="4.9531">
        <ele>181.83</ele>
        <time>2020-08-30T15:03:14Z</time>
      </trkpt>
      <trkpt lat="49.62257" lon="4.95325">
        <ele>181.83</ele>
        <time>2020-08-30T15:03:24Z</time>
      </trkpt>
      <trkpt lat="49.6226" lon="4.95329">
        <ele>180.87</ele>
        <time>2020-08-30T15:03:27Z</time>
      </trkpt>
      <trkpt lat="49.62263" lon="4.95339">
        <ele>179.42</ele>
        <time>2020-08-30T15:03:34Z</time>
      </trkpt>
      <trkpt lat="49.62274" lon="4.95372">
        <ele>180.87</ele>
        <time>2020-08-30T15:03:55Z</time>
      </trkpt>
      <trkpt lat="49.62283" lon="4.95396">
        <ele>180.87</ele>
        <time>2020-08-30T15:04:10Z</time>
      </trkpt>
      <trkpt lat="49.62291" lon="4.95417">
        <ele>182.31</ele>
        <time>2020-08-30T15:04:25Z</time>
      </trkpt>
      <trkpt lat="49.623" lon="4.95443">
        <ele>182.79</ele>
        <time>2020-08-30T15:04:41Z</time>
      </trkpt>
      <trkpt lat="49.62304" lon="4.95457">
        <ele>182.79</ele>
        <time>2020-08-30T15:04:50Z</time>
      </trkpt>
      <trkpt lat="49.6231" lon="4.95469">
        <ele>182.31</ele>
        <time>2020-08-30T15:04:59Z</time>
      </trkpt>
      <trkpt lat="49.62315" lon="4.95498">
        <ele>184.23</ele>
        <time>2020-08-30T15:05:16Z</time>
      </trkpt>
      <trkpt lat="49.62318" lon="4.95508">
        <ele>183.75</ele>
        <time>2020-08-30T15:05:23Z</time>
      </trkpt>
      <trkpt lat="49.62326" lon="4.95539">
        <ele>184.71</ele>
        <time>2020-08-30T15:05:42Z</time>
      </trkpt>
      <trkpt lat="49.62333" lon="4.95566">
        <ele>183.27</ele>
        <time>2020-08-30T15:05:59Z</time>
      </trkpt>
      <trkpt lat="49.62336" lon="4.95585">
        <ele>184.23</ele>
        <time>2020-08-30T15:06:12Z</time>
      </trkpt>
      <trkpt lat="49.62338" lon="4.95593">
        <ele>184.23</ele>
        <time>2020-08-30T15:06:17Z</time>
      </trkpt>
      <trkpt lat="49.62343" lon="4.95623">
        <ele>185.19</ele>
        <time>2020-08-30T15:06:34Z</time>
      </trkpt>
      <trkpt lat="49.62349" lon="4.95658">
        <ele>186.63</ele>
        <time>2020-08-30T15:06:55Z</time>
      </trkpt>
      <trkpt lat="49.62352" lon="4.95685">
        <ele>185.19</ele>
        <time>2020-08-30T15:07:11Z</time>
      </trkpt>
      <trkpt lat="49.62354" lon="4.95697">
        <ele>184.71</ele>
        <time>2020-08-30T15:07:18Z</time>
      </trkpt>
      <trkpt lat="49.6236" lon="4.95735">
        <ele>179.9</ele>
        <time>2020-08-30T15:07:37Z</time>
      </trkpt>
      <trkpt lat="49.6236" lon="4.95737">
        <ele>180.38</ele>
        <time>2020-08-30T15:07:38Z</time>
      </trkpt>
      <trkpt lat="49.62363" lon="4.95768">
        <ele>177.5</ele>
        <time>2020-08-30T15:07:56Z</time>
      </trkpt>
      <trkpt lat="49.62359" lon="4.95802">
        <ele>176.54</ele>
        <time>2020-08-30T15:08:14Z</time>
      </trkpt>
      <trkpt lat="49.62359" lon="4.95832">
        <ele>173.17</ele>
        <time>2020-08-30T15:08:33Z</time>
      </trkpt>
      <trkpt lat="49.62357" lon="4.95853">
        <ele>168.85</ele>
        <time>2020-08-30T15:08:47Z</time>
      </trkpt>
      <trkpt lat="49.62356" lon="4.95854">
        <ele>168.85</ele>
        <time>2020-08-30T15:08:48Z</time>
      </trkpt>
      <trkpt lat="49.62354" lon="4.9586">
        <ele>167.89</ele>
        <time>2020-08-30T15:08:52Z</time>
      </trkpt>
      <trkpt lat="49.62353" lon="4.9588">
        <ele>168.37</ele>
        <time>2020-08-30T15:09:03Z</time>
      </trkpt>
      <trkpt lat="49.6236" lon="4.95897">
        <ele>169.81</ele>
        <time>2020-08-30T15:09:15Z</time>
      </trkpt>
      <trkpt lat="49.62363" lon="4.95909">
        <ele>171.25</ele>
        <time>2020-08-30T15:09:23Z</time>
      </trkpt>
      <trkpt lat="49.62367" lon="4.95925">
        <ele>173.17</ele>
        <time>2020-08-30T15:09:33Z</time>
      </trkpt>
      <trkpt lat="49.62371" lon="4.95955">
        <ele>177.5</ele>
        <time>2020-08-30T15:09:50Z</time>
      </trkpt>
      <trkpt lat="49.62371" lon="4.95957">
        <ele>177.98</ele>
        <time>2020-08-30T15:09:51Z</time>
      </trkpt>
      <trkpt lat="49.62377" lon="4.95986">
        <ele>180.38</ele>
        <time>2020-08-30T15:10:08Z</time>
      </trkpt>
      <trkpt lat="49.6238" lon="4.96002">
        <ele>180.38</ele>
        <time>2020-08-30T15:10:18Z</time>
      </trkpt>
      <trkpt lat="49.62382" lon="4.96005">
        <ele>179.9</ele>
        <time>2020-08-30T15:10:21Z</time>
      </trkpt>
      <trkpt lat="49.6239" lon="4.96032">
        <ele>180.38</ele>
        <time>2020-08-30T15:10:38Z</time>
      </trkpt>
      <trkpt lat="49.624" lon="4.96056">
        <ele>183.27</ele>
        <time>2020-08-30T15:10:55Z</time>
      </trkpt>
      <trkpt lat="49.62403" lon="4.96058">
        <ele>183.27</ele>
        <time>2020-08-30T15:10:58Z</time>
      </trkpt>
      <trkpt lat="49.62423" lon="4.96071">
        <ele>184.71</ele>
        <time>2020-08-30T15:11:19Z</time>
      </trkpt>
      <trkpt lat="49.62445" lon="4.96085">
        <ele>185.67</ele>
        <time>2020-08-30T15:11:40Z</time>
      </trkpt>
      <trkpt lat="49.62463" lon="4.96091">
        <ele>189.52</ele>
        <time>2020-08-30T15:11:56Z</time>
      </trkpt>
      <trkpt lat="49.62469" lon="4.96092">
        <ele>189.04</ele>
        <time>2020-08-30T15:12:01Z</time>
      </trkpt>
      <trkpt lat="49.62489" lon="4.96103">
        <ele>188.08</ele>
        <time>2020-08-30T15:12:21Z</time>
      </trkpt>
      <trkpt lat="49.62508" lon="4.96107">
        <ele>187.11</ele>
        <time>2020-08-30T15:12:38Z</time>
      </trkpt>
      <trkpt lat="49.62533" lon="4.96107">
        <ele>182.79</ele>
        <time>2020-08-30T15:12:59Z</time>
      </trkpt>
      <trkpt lat="49.62552" lon="4.96099">
        <ele>184.23</ele>
        <time>2020-08-30T15:13:18Z</time>
      </trkpt>
      <trkpt lat="49.62561" lon="4.96096">
        <ele>184.23</ele>
        <time>2020-08-30T15:13:26Z</time>
      </trkpt>
      <trkpt lat="49.62589" lon="4.96091">
        <ele>192.88</ele>
        <time>2020-08-30T15:13:48Z</time>
      </trkpt>
      <trkpt lat="49.62607" lon="4.96094">
        <ele>193.36</ele>
        <time>2020-08-30T15:14:07Z</time>
      </trkpt>
      <trkpt lat="49.62621" lon="4.96103">
        <ele>191.92</ele>
        <time>2020-08-30T15:14:23Z</time>
      </trkpt>
      <trkpt lat="49.62634" lon="4.96117">
        <ele>184.23</ele>
        <time>2020-08-30T15:14:41Z</time>
      </trkpt>
      <trkpt lat="49.62645" lon="4.96128">
        <ele>178.46</ele>
        <time>2020-08-30T15:14:58Z</time>
      </trkpt>
      <trkpt lat="49.62656" lon="4.96141">
        <ele>175.58</ele>
        <time>2020-08-30T15:15:13Z</time>
      </trkpt>
      <trkpt lat="49.62671" lon="4.96163">
        <ele>174.62</ele>
        <time>2020-08-30T15:15:32Z</time>
      </trkpt>
      <trkpt lat="49.62685" lon="4.9619">
        <ele>177.98</ele>
        <time>2020-08-30T15:15:49Z</time>
      </trkpt>
      <trkpt lat="49.62698" lon="4.96212">
        <ele>178.94</ele>
        <time>2020-08-30T15:16:05Z</time>
      </trkpt>
      <trkpt lat="49.62717" lon="4.96228">
        <ele>182.79</ele>
        <time>2020-08-30T15:16:23Z</time>
      </trkpt>
      <trkpt lat="49.62744" lon="4.96246">
        <ele>182.79</ele>
        <time>2020-08-30T15:16:46Z</time>
      </trkpt>
      <trkpt lat="49.6277" lon="4.96265">
        <ele>182.31</ele>
        <time>2020-08-30T15:17:10Z</time>
      </trkpt>
      <trkpt lat="49.62788" lon="4.96282">
        <ele>180.38</ele>
        <time>2020-08-30T15:17:30Z</time>
      </trkpt>
      <trkpt lat="49.62806" lon="4.96296">
        <ele>180.38</ele>
        <time>2020-08-30T15:17:49Z</time>
      </trkpt>
      <trkpt lat="49.62825" lon="4.96321">
        <ele>185.19</ele>
        <time>2020-08-30T15:18:09Z</time>
      </trkpt>
      <trkpt lat="49.62839" lon="4.96345">
        <ele>184.71</ele>
        <time>2020-08-30T15:18:28Z</time>
      </trkpt>
      <trkpt lat="49.62846" lon="4.96352">
        <ele>183.75</ele>
        <time>2020-08-30T15:18:36Z</time>
      </trkpt>
      <trkpt lat="49.62862" lon="4.96378">
        <ele>183.75</ele>
        <time>2020-08-30T15:18:58Z</time>
      </trkpt>
      <trkpt lat="49.62867" lon="4.96388">
        <ele>184.71</ele>
        <time>2020-08-30T15:19:05Z</time>
      </trkpt>
      <trkpt lat="49.62886" lon="4.96408">
        <ele>179.42</ele>
        <time>2020-08-30T15:19:26Z</time>
      </trkpt>
      <trkpt lat="49.62903" lon="4.96422">
        <ele>170.77</ele>
        <time>2020-08-30T15:19:45Z</time>
      </trkpt>
      <trkpt lat="49.62912" lon="4.96436">
        <ele>164.52</ele>
        <time>2020-08-30T15:20:01Z</time>
      </trkpt>
      <trkpt lat="49.62914" lon="4.96441">
        <ele>164.52</ele>
        <time>2020-08-30T15:20:05Z</time>
      </trkpt>
      <trkpt lat="49.62917" lon="4.96448">
        <ele>165.48</ele>
        <time>2020-08-30T15:20:10Z</time>
      </trkpt>
      <trkpt lat="49.62926" lon="4.96481">
        <ele>167.89</ele>
        <time>2020-08-30T15:20:29Z</time>
      </trkpt>
      <trkpt lat="49.62924" lon="4.96507">
        <ele>165.96</ele>
        <time>2020-08-30T15:20:47Z</time>
      </trkpt>
      <trkpt lat="49.62922" lon="4.96513">
        <ele>165.48</ele>
        <time>2020-08-30T15:20:51Z</time>
      </trkpt>
      <trkpt lat="49.62933" lon="4.96528">
        <ele>168.85</ele>
        <time>2020-08-30T15:21:09Z</time>
      </trkpt>
      <trkpt lat="49.6295" lon="4.96544">
        <ele>165.96</ele>
        <time>2020-08-30T15:21:28Z</time>
      </trkpt>
      <trkpt lat="49.62969" lon="4.96561">
        <ele>164.04</ele>
        <time>2020-08-30T15:21:46Z</time>
      </trkpt>
      <trkpt lat="49.62982" lon="4.96575">
        <ele>161.64</ele>
        <time>2020-08-30T15:22:03Z</time>
      </trkpt>
      <trkpt lat="49.63003" lon="4.9659">
        <ele>162.12</ele>
        <time>2020-08-30T15:22:23Z</time>
      </trkpt>
      <trkpt lat="49.63024" lon="4.96609">
        <ele>168.37</ele>
        <time>2020-08-30T15:22:41Z</time>
      </trkpt>
      <trkpt lat="49.63043" lon="4.96625">
        <ele>170.77</ele>
        <time>2020-08-30T15:22:59Z</time>
      </trkpt>
      <trkpt lat="49.63056" lon="4.96633">
        <ele>170.29</ele>
        <time>2020-08-30T15:23:14Z</time>
      </trkpt>
      <trkpt lat="49.63077" lon="4.96647">
        <ele>165.96</ele>
        <time>2020-08-30T15:23:35Z</time>
      </trkpt>
      <trkpt lat="49.63095" lon="4.96662">
        <ele>165.48</ele>
        <time>2020-08-30T15:23:53Z</time>
      </trkpt>
      <trkpt lat="49.63117" lon="4.96682">
        <ele>165.96</ele>
        <time>2020-08-30T15:24:15Z</time>
      </trkpt>
      <trkpt lat="49.63133" lon="4.96699">
        <ele>163.56</ele>
        <time>2020-08-30T15:24:35Z</time>
      </trkpt>
      <trkpt lat="49.63156" lon="4.96719">
        <ele>164.52</ele>
        <time>2020-08-30T15:24:56Z</time>
      </trkpt>
      <trkpt lat="49.63176" lon="4.96738">
        <ele>167.89</ele>
        <time>2020-08-30T15:25:15Z</time>
      </trkpt>
      <trkpt lat="49.63196" lon="4.96759">
        <ele>168.85</ele>
        <time>2020-08-30T15:25:38Z</time>
      </trkpt>
      <trkpt lat="49.63212" lon="4.96777">
        <ele>167.41</ele>
        <time>2020-08-30T15:25:57Z</time>
      </trkpt>
      <trkpt lat="49.63226" lon="4.96802">
        <ele>169.81</ele>
        <time>2020-08-30T15:26:16Z</time>
      </trkpt>
      <trkpt lat="49.63239" lon="4.96822">
        <ele>169.33</ele>
        <time>2020-08-30T15:26:34Z</time>
      </trkpt>
      <trkpt lat="49.6325" lon="4.96839">
        <ele>167.89</ele>
        <time>2020-08-30T15:26:50Z</time>
      </trkpt>
      <trkpt lat="49.63264" lon="4.96874">
        <ele>164.52</ele>
        <time>2020-08-30T15:27:11Z</time>
      </trkpt>
      <trkpt lat="49.63275" lon="4.96897">
        <ele>163.08</ele>
        <time>2020-08-30T15:27:30Z</time>
      </trkpt>
      <trkpt lat="49.63286" lon="4.96926">
        <ele>165.48</ele>
        <time>2020-08-30T15:27:47Z</time>
      </trkpt>
      <trkpt lat="49.63293" lon="4.96957">
        <ele>166.93</ele>
        <time>2020-08-30T15:28:05Z</time>
      </trkpt>
      <trkpt lat="49.633" lon="4.9698">
        <ele>166.45</ele>
        <time>2020-08-30T15:28:22Z</time>
      </trkpt>
      <trkpt lat="49.63308" lon="4.97017">
        <ele>165.96</ele>
        <time>2020-08-30T15:28:44Z</time>
      </trkpt>
      <trkpt lat="49.63311" lon="4.97048">
        <ele>168.37</ele>
        <time>2020-08-30T15:29:01Z</time>
      </trkpt>
      <trkpt lat="49.63318" lon="4.97073">
        <ele>166.45</ele>
        <time>2020-08-30T15:29:18Z</time>
      </trkpt>
      <trkpt lat="49.63325" lon="4.97094">
        <ele>162.12</ele>
        <time>2020-08-30T15:29:35Z</time>
      </trkpt>
      <trkpt lat="49.63332" lon="4.97119">
        <ele>158.27</ele>
        <time>2020-08-30T15:29:53Z</time>
      </trkpt>
      <trkpt lat="49.6334" lon="4.97148">
        <ele>154.43</ele>
        <time>2020-08-30T15:30:11Z</time>
      </trkpt>
      <trkpt lat="49.63349" lon="4.97177">
        <ele>151.06</ele>
        <time>2020-08-30T15:30:30Z</time>
      </trkpt>
      <trkpt lat="49.63359" lon="4.97208">
        <ele>148.66</ele>
        <time>2020-08-30T15:30:49Z</time>
      </trkpt>
      <trkpt lat="49.63372" lon="4.97238">
        <ele>149.14</ele>
        <time>2020-08-30T15:31:09Z</time>
      </trkpt>
      <trkpt lat="49.63384" lon="4.97263">
        <ele>149.62</ele>
        <time>2020-08-30T15:31:28Z</time>
      </trkpt>
      <trkpt lat="49.63397" lon="4.97289">
        <ele>151.06</ele>
        <time>2020-08-30T15:31:45Z</time>
      </trkpt>
      <trkpt lat="49.6341" lon="4.97314">
        <ele>153.47</ele>
        <time>2020-08-30T15:32:02Z</time>
      </trkpt>
      <trkpt lat="49.6342" lon="4.97339">
        <ele>156.35</ele>
        <time>2020-08-30T15:32:21Z</time>
      </trkpt>
      <trkpt lat="49.63433" lon="4.9737">
        <ele>159.72</ele>
        <time>2020-08-30T15:32:42Z</time>
      </trkpt>
      <trkpt lat="49.63447" lon="4.97394">
        <ele>158.75</ele>
        <time>2020-08-30T15:33:01Z</time>
      </trkpt>
      <trkpt lat="49.63462" lon="4.97421">
        <ele>165.48</ele>
        <time>2020-08-30T15:33:18Z</time>
      </trkpt>
      <trkpt lat="49.63475" lon="4.97444">
        <ele>167.41</ele>
        <time>2020-08-30T15:33:36Z</time>
      </trkpt>
      <trkpt lat="49.63489" lon="4.97471">
        <ele>169.33</ele>
        <time>2020-08-30T15:33:53Z</time>
      </trkpt>
      <trkpt lat="49.63506" lon="4.97509">
        <ele>173.66</ele>
        <time>2020-08-30T15:34:17Z</time>
      </trkpt>
      <trkpt lat="49.63523" lon="4.97533">
        <ele>172.69</ele>
        <time>2020-08-30T15:34:36Z</time>
      </trkpt>
      <trkpt lat="49.63539" lon="4.97562">
        <ele>171.73</ele>
        <time>2020-08-30T15:34:57Z</time>
      </trkpt>
      <trkpt lat="49.63556" lon="4.97592">
        <ele>172.69</ele>
        <time>2020-08-30T15:35:19Z</time>
      </trkpt>
      <trkpt lat="49.63574" lon="4.97616">
        <ele>171.73</ele>
        <time>2020-08-30T15:35:38Z</time>
      </trkpt>
      <trkpt lat="49.63591" lon="4.97638">
        <ele>172.69</ele>
        <time>2020-08-30T15:35:58Z</time>
      </trkpt>
      <trkpt lat="49.63599" lon="4.97651">
        <ele>171.73</ele>
        <time>2020-08-30T15:36:09Z</time>
      </trkpt>
      <trkpt lat="49.63601" lon="4.9766">
        <ele>173.66</ele>
        <time>2020-08-30T15:36:14Z</time>
      </trkpt>
      <trkpt lat="49.636" lon="4.97665">
        <ele>174.62</ele>
        <time>2020-08-30T15:36:17Z</time>
      </trkpt>
      <trkpt lat="49.63587" lon="4.97684">
        <ele>173.66</ele>
        <time>2020-08-30T15:36:36Z</time>
      </trkpt>
      <trkpt lat="49.63573" lon="4.97704">
        <ele>168.37</ele>
        <time>2020-08-30T15:36:58Z</time>
      </trkpt>
      <trkpt lat="49.63564" lon="4.97714">
        <ele>168.85</ele>
        <time>2020-08-30T15:37:04Z</time>
      </trkpt>
      <trkpt lat="49.63546" lon="4.9775">
        <ele>168.85</ele>
        <time>2020-08-30T15:37:24Z</time>
      </trkpt>
      <trkpt lat="49.63535" lon="4.97781">
        <ele>168.37</ele>
        <time>2020-08-30T15:37:45Z</time>
      </trkpt>
      <trkpt lat="49.6352" lon="4.97797">
        <ele>171.73</ele>
        <time>2020-08-30T15:38:03Z</time>
      </trkpt>
      <trkpt lat="49.635" lon="4.9782">
        <ele>172.69</ele>
        <time>2020-08-30T15:38:24Z</time>
      </trkpt>
      <trkpt lat="49.63485" lon="4.97843">
        <ele>170.29</ele>
        <time>2020-08-30T15:38:45Z</time>
      </trkpt>
      <trkpt lat="49.63476" lon="4.97863">
        <ele>170.77</ele>
        <time>2020-08-30T15:39:03Z</time>
      </trkpt>
      <trkpt lat="49.63464" lon="4.97883">
        <ele>172.21</ele>
        <time>2020-08-30T15:39:20Z</time>
      </trkpt>
      <trkpt lat="49.63444" lon="4.979">
        <ele>170.77</ele>
        <time>2020-08-30T15:39:40Z</time>
      </trkpt>
      <trkpt lat="49.63438" lon="4.97902">
        <ele>171.25</ele>
        <time>2020-08-30T15:39:45Z</time>
      </trkpt>
      <trkpt lat="49.63419" lon="4.97913">
        <ele>173.66</ele>
        <time>2020-08-30T15:40:03Z</time>
      </trkpt>
      <trkpt lat="49.63407" lon="4.97922">
        <ele>174.62</ele>
        <time>2020-08-30T15:40:19Z</time>
      </trkpt>
      <trkpt lat="49.63402" lon="4.97926">
        <ele>173.66</ele>
        <time>2020-08-30T15:40:32Z</time>
      </trkpt>
      <trkpt lat="49.63389" lon="4.97941">
        <ele>174.14</ele>
        <time>2020-08-30T15:40:49Z</time>
      </trkpt>
      <trkpt lat="49.63389" lon="4.97942">
        <ele>174.62</ele>
        <time>2020-08-30T15:41:05Z</time>
      </trkpt>
      <trkpt lat="49.63399" lon="4.97961">
        <ele>171.25</ele>
        <time>2020-08-30T15:41:23Z</time>
      </trkpt>
      <trkpt lat="49.6341" lon="4.97985">
        <ele>170.29</ele>
        <time>2020-08-30T15:41:41Z</time>
      </trkpt>
      <trkpt lat="49.63411" lon="4.97987">
        <ele>170.29</ele>
        <time>2020-08-30T15:41:43Z</time>
      </trkpt>
      <trkpt lat="49.63423" lon="4.98005">
        <ele>168.85</ele>
        <time>2020-08-30T15:41:58Z</time>
      </trkpt>
      <trkpt lat="49.63436" lon="4.98027">
        <ele>169.81</ele>
        <time>2020-08-30T15:42:14Z</time>
      </trkpt>
      <trkpt lat="49.63451" lon="4.98036">
        <ele>168.85</ele>
        <time>2020-08-30T15:42:31Z</time>
      </trkpt>
      <trkpt lat="49.63455" lon="4.98039">
        <ele>171.73</ele>
        <time>2020-08-30T15:42:43Z</time>
      </trkpt>
      <trkpt lat="49.63454" lon="4.98041">
        <ele>172.21</ele>
        <time>2020-08-30T15:42:54Z</time>
      </trkpt>
      <trkpt lat="49.63454" lon="4.98043">
        <ele>173.17</ele>
        <time>2020-08-30T15:43:06Z</time>
      </trkpt>
    </trkseg>
  </trk>
</gpx>